EW4541 Weather Reports


Display with metric or nautical units.
time (UTC)temp
F
wind
direction
speed
MPH
gust
MPH
rain 1hr
in
rain 24hr
in
rain mn
in
humidity
%
barometer
mb
20210124190701 34 146 1.0 3.0 0.65 0.69 0.69 89 992.8
20210124190601 34 149 1.0 3.0 0.65 0.69 0.69 89 992.9
20210124190514 34 145 1.0 3.0 0.65 0.69 0.69 89 992.9
20210124190401 34 143 1.0 3.0 0.65 0.69 0.69 89 992.8
20210124190305 34 145 1.0 3.0 0.65 0.69 0.69 89 992.9
20210124190202 34 145 1.0 3.0 0.65 0.69 0.69 89 993.0
20210124190107 34 141 1.0 3.0 0.65 0.69 0.69 89 993.0
20210124190016 34 135 1.0 3.0 0.65 0.69 0.69 89 993.1
20210124185903 34 127 1.0 2.0 0.65 0.69 0.69 89 993.0
20210124185802 34 123 1.0 2.0 0.65 0.69 0.69 89 993.0
20210124185705 34 123 1.0 2.0 0.65 0.69 0.69 89 993.0
20210124185604 34 124 1.0 2.0 0.65 0.69 0.69 89 992.9
20210124185501 34 123 0.0 2.0 0.65 0.69 0.69 89 993.1
20210124185404 34 121 0.0 2.0 0.65 0.69 0.69 89 993.0
20210124185307 34 118 0.0 2.0 0.65 0.69 0.69 89 993.0
20210124185203 34 119 0.0 2.0 0.65 0.69 0.69 89 993.1
20210124185102 34 135 0.0 1.0 0.65 0.69 0.69 89 993.2
20210124185019 34 135 0.0 1.0 0.65 0.69 0.69 89 993.1
20210124184902 34 129 0.0 1.0 0.65 0.69 0.69 89 993.1
20210124184800 34 125 0.0 1.0 0.65 0.69 0.69 89 993.1
20210124184701 34 130 0.0 1.0 0.65 0.69 0.69 89 993.0
20210124184605 34 130 0.0 1.0 0.65 0.69 0.69 89 993.0
20210124184523 34 130 0.0 1.0 0.65 0.69 0.69 89 993.0
20210124184402 34 130 0.0 1.0 0.65 0.69 0.69 89 993.0
20210124184305 34 130 0.0 1.0 0.65 0.69 0.69 89 993.0
20210124184200 34 103 0.0 2.0 0.65 0.69 0.69 89 992.9
20210124184101 34 96 0.0 2.0 0.65 0.69 0.69 89 993.0
20210124184007 34 96 0.0 2.0 0.65 0.69 0.69 89 993.1
20210124183903 34 356 1.0 68.0 0.65 0.69 0.69 89 993.0
20210124183808 34 346 2.0 68.0 0.65 0.69 0.69 89 993.0
20210124183706 34 340 2.0 68.0 0.65 0.69 0.69 89 993.0
20210124183602 35 334 3.0 68.0 0.65 0.69 0.69 89 993.0
20210124183521 35 332 3.0 68.0 0.65 0.69 0.69 89 993.0
20210124183403 35 329 3.0 68.0 0.65 0.69 0.69 89 993.1
20210124183307 35 328 3.0 68.0 0.65 0.69 0.69 89 993.0
20210124183203 35 325 4.0 68.0 0.65 0.69 0.69 89 993.2
20210124183101 35 321 4.0 68.0 0.65 0.69 0.69 89 993.3
20210124183018 35 320 4.0 68.0 0.65 0.69 0.69 89 993.3
20210124182901 35 311 4.0 12.0 0.02 0.06 0.06 89 993.3
20210124182804 35 313 4.0 12.0 0.02 0.06 0.06 89 993.3
20210124182704 35 311 4.0 12.0 0.02 0.06 0.06 89 993.3
20210124182605 35 312 4.0 12.0 0.02 0.06 0.06 89 993.3
20210124182501 35 313 5.0 12.0 0.02 0.06 0.06 89 993.3
20210124182400 36 314 5.0 12.0 0.02 0.06 0.06 89 993.3
20210124182300 36 317 6.0 21.0 0.02 0.06 0.06 89 993.4
20210124182204 36 319 6.0 21.0 0.02 0.06 0.06 89 993.4
20210124182103 36 321 7.0 21.0 0.02 0.06 0.06 89 993.4
20210124182000 36 324 7.0 21.0 0.02 0.06 0.06 89 993.4
20210124181902 36 324 7.0 21.0 0.02 0.06 0.06 90 993.5
20210124181802 36 324 6.0 21.0 0.02 0.06 0.06 90 993.4
20210124181704 37 325 6.0 21.0 0.02 0.06 0.06 90 993.5
20210124181601 37 325 5.0 21.0 0.02 0.06 0.06 90 993.5
20210124181510 37 327 5.0 21.0 0.00 0.04 0.04 90 993.4
20210124181401 37 329 4.0 21.0 0.00 0.04 0.04 90 993.3
20210124181301 37 328 3.0 11.0 0.00 0.04 0.04 90 993.2
20210124181201 37 322 2.0 11.0 0.00 0.04 0.04 90 993.2
20210124181100 37 325 2.0 11.0 0.00 0.04 0.04 90 992.8
20210124181013 37 198 1.0 6.0 0.00 0.04 0.04 90 992.6
20210124180902 37 174 1.0 3.0 0.00 0.04 0.04 90 992.4
20210124180800 37 171 1.0 5.0 0.00 0.04 0.04 90 992.4
20210124180701 37 166 2.0 5.0 0.00 0.04 0.04 90 992.4
20210124180601 37 158 2.0 5.0 0.00 0.04 0.04 90 992.4
20210124180510 37 164 2.0 7.0 0.00 0.04 0.04 90 992.4
20210124180401 37 157 3.0 9.0 0.00 0.04 0.04 90 992.4
20210124180312 37 152 3.0 9.0 0.00 0.04 0.04 90 992.5
20210124180237 36 151 3.0 9.0 0.00 0.04 0.04 90 992.5
20210124180107 36 150 4.0 9.0 0.00 0.04 0.04 90 992.4
20210124180021 36 147 4.0 9.0 0.00 0.04 0.04 90 992.4
20210124175904 36 144 4.0 9.0 0.00 0.04 0.04 90 992.4
20210124175801 36 142 4.0 9.0 0.00 0.04 0.04 90 992.3
20210124175704 36 141 4.0 9.0 0.00 0.04 0.04 90 992.3
20210124175602 36 142 4.0 9.0 0.00 0.04 0.04 90 992.3
20210124175519 36 140 4.0 9.0 0.00 0.04 0.04 90 992.3
20210124175409 36 140 4.0 9.0 0.00 0.04 0.04 90 992.4
20210124175306 36 141 4.0 9.0 0.00 0.04 0.04 90 992.4
20210124175200 36 142 4.0 9.0 0.00 0.04 0.04 90 992.4
20210124175112 36 141 3.0 8.0 0.00 0.04 0.04 90 992.4
20210124175012 36 139 3.0 8.0 0.00 0.04 0.04 90 992.4
20210124174902 36 139 3.0 6.0 0.00 0.04 0.04 90 992.5
20210124174801 36 138 3.0 6.0 0.00 0.04 0.04 90 992.5
20210124174703 36 134 3.0 6.0 0.00 0.04 0.04 90 992.5
20210124174610 36 132 2.0 5.0 0.00 0.04 0.04 90 992.5
20210124174510 36 130 2.0 5.0 0.00 0.04 0.04 90 992.5
20210124174402 36 130 2.0 5.0 0.00 0.04 0.04 90 992.5
20210124174306 36 125 2.0 5.0 0.00 0.04 0.04 90 992.7
20210124174201 36 123 2.0 5.0 0.00 0.04 0.04 90 992.6
20210124174102 36 125 2.0 6.0 0.00 0.04 0.04 89 992.6
20210124174004 36 126 2.0 6.0 0.00 0.04 0.04 89 992.7
20210124173900 36 127 2.0 6.0 0.00 0.04 0.04 89 992.7
20210124173801 36 129 2.0 6.0 0.00 0.04 0.04 89 992.6
20210124173705 36 135 2.0 6.0 0.00 0.04 0.04 89 992.7
20210124173605 36 135 2.0 6.0 0.00 0.04 0.04 89 992.7
20210124173517 36 136 2.0 6.0 0.00 0.04 0.04 89 992.7
20210124173401 36 135 2.0 6.0 0.00 0.04 0.04 89 992.8
20210124173301 36 135 2.0 6.0 0.00 0.04 0.04 90 992.7
20210124173201 36 138 2.0 6.0 0.00 0.04 0.04 90 992.8
20210124173104 36 134 1.0 5.0 0.00 0.04 0.04 89 992.8
20210124173021 36 131 1.0 4.0 0.00 0.04 0.04 89 992.8
20210124172901 36 130 1.0 4.0 0.00 0.04 0.04 89 992.8
20210124172807 36 135 1.0 4.0 0.00 0.04 0.04 89 992.8
20210124172704 36 134 1.0 4.0 0.00 0.04 0.04 89 992.8
20210124172606 36 135 1.0 4.0 0.00 0.04 0.04 89 992.8
20210124172510 36 137 1.0 3.0 0.00 0.04 0.04 90 992.8
20210124172401 36 138 1.0 3.0 0.00 0.04 0.04 89 992.9
20210124172306 36 142 1.0 3.0 0.00 0.04 0.04 89 992.9
20210124172201 36 148 1.0 4.0 0.00 0.04 0.04 89 992.9
20210124172106 36 151 1.0 4.0 0.00 0.04 0.04 89 992.9
20210124172000 36 159 1.0 4.0 0.00 0.04 0.04 89 992.9
20210124171901 36 163 1.0 4.0 0.00 0.04 0.04 89 993.0
20210124171801 36 162 1.0 4.0 0.00 0.04 0.04 89 993.0
20210124171701 36 159 1.0 4.0 0.00 0.04 0.04 89 993.0
20210124171601 36 160 1.0 4.0 0.00 0.04 0.04 89 993.0
20210124171511 36 158 1.0 4.0 0.00 0.04 0.04 89 993.0
20210124171404 36 163 1.0 4.0 0.00 0.04 0.04 89 993.0
20210124171304 36 158 1.0 4.0 0.00 0.04 0.04 89 993.0
20210124171200 36 153 1.0 4.0 0.00 0.04 0.04 89 993.0
20210124171104 36 154 1.0 4.0 0.00 0.04 0.04 89 993.0
20210124171019 36 155 1.0 4.0 0.00 0.04 0.04 89 993.1
20210124170901 36 152 1.0 4.0 0.00 0.04 0.04 89 993.1
20210124170800 36 147 1.0 4.0 0.00 0.04 0.04 89 993.1
20210124170703 36 154 1.0 4.0 0.00 0.04 0.04 89 993.1
20210124170608 36 152 1.0 4.0 0.00 0.04 0.04 89 993.1
20210124170501 36 154 1.0 4.0 0.00 0.04 0.04 89 993.1
20210124170400 36 148 1.0 4.0 0.00 0.04 0.04 89 993.1
20210124170304 36 146 1.0 5.0 0.00 0.04 0.04 89 993.2
20210124170204 36 144 2.0 5.0 0.00 0.04 0.04 89 993.2
20210124170101 36 146 2.0 5.0 0.00 0.04 0.04 89 993.2
20210124170012 36 147 2.0 5.0 0.00 0.04 0.04 89 993.2
20210124165901 36 147 2.0 5.0 0.00 0.04 0.04 89 993.1
20210124165809 36 145 2.0 5.0 0.00 0.04 0.04 89 993.2
20210124165701 36 142 2.0 5.0 0.00 0.04 0.04 89 993.2
20210124165605 36 140 2.0 5.0 0.00 0.04 0.04 89 993.2
20210124165519 36 137 2.0 5.0 0.00 0.04 0.04 89 993.1
20210124165401 36 137 2.0 5.0 0.00 0.04 0.04 89 993.1
20210124165300 36 138 2.0 5.0 0.00 0.04 0.04 89 993.1
20210124165202 36 144 2.0 6.0 0.00 0.04 0.04 89 993.2
20210124165103 36 140 2.0 6.0 0.00 0.04 0.04 89 993.2
20210124165011 36 139 2.0 6.0 0.00 0.04 0.04 89 993.2
20210124164900 36 139 2.0 6.0 0.00 0.04 0.04 89 993.2
20210124164805 36 137 2.0 6.0 0.00 0.04 0.04 89 993.2
20210124164703 36 135 2.0 6.0 0.00 0.04 0.04 89 993.2
20210124164611 36 134 2.0 7.0 0.00 0.04 0.04 89 993.3
20210124164518 36 137 2.0 7.0 0.00 0.04 0.04 89 993.3
20210124164402 35 135 3.0 7.0 0.00 0.04 0.04 89 993.3
20210124164300 36 134 3.0 7.0 0.00 0.04 0.04 89 993.3
20210124164201 35 132 3.0 7.0 0.00 0.04 0.04 89 993.3
20210124164102 35 132 3.0 7.0 0.00 0.04 0.04 89 993.4
20210124164000 35 132 3.0 7.0 0.00 0.04 0.04 89 993.3
20210124163901 35 132 3.0 7.0 0.00 0.20 0.04 89 993.3
20210124163801 35 135 3.0 7.0 0.00 0.20 0.04 89 993.2
20210124163708 35 137 3.0 7.0 0.00 0.20 0.04 89 993.2
20210124163601 35 139 3.0 5.0 0.00 0.20 0.04 89 993.2
20210124163509 35 138 3.0 5.0 0.00 0.20 0.04 89 993.2
20210124163402 35 140 3.0 5.0 0.00 0.20 0.04 89 993.2
20210124163310 35 140 2.0 5.0 0.00 0.20 0.04 89 993.3
20210124163203 35 138 2.0 5.0 0.00 0.20 0.04 89 993.2
20210124163101 35 141 2.0 5.0 0.00 0.20 0.04 89 993.2
20210124163001 35 144 3.0 5.0 0.00 0.20 0.04 89 993.2
20210124162900 35 141 2.0 5.0 0.00 0.20 0.04 89 993.3
20210124162804 35 140 2.0 5.0 0.00 0.20 0.04 89 993.3
20210124162702 35 141 2.0 5.0 0.00 0.20 0.04 89 993.2
20210124162607 35 143 3.0 5.0 0.00 0.20 0.04 89 993.3
20210124162512 35 140 3.0 8.0 0.00 0.20 0.04 89 993.3
20210124162400 35 141 3.0 8.0 0.00 0.20 0.04 89 993.3
20210124162300 35 141 3.0 8.0 0.00 0.20 0.04 89 993.2
20210124162201 35 144 3.0 8.0 0.00 0.20 0.04 89 993.2
20210124162101 35 143 3.0 9.0 0.00 0.20 0.04 89 993.3
20210124162014 35 140 3.0 9.0 0.00 0.20 0.04 89 993.2
20210124161904 35 142 3.0 9.0 0.00 0.20 0.04 89 993.2
20210124161803 35 141 3.0 9.0 0.00 0.20 0.04 89 993.2
20210124161701 35 138 4.0 9.0 0.00 0.20 0.04 89 993.1
20210124161603 35 138 4.0 9.0 0.00 0.20 0.04 89 993.2
20210124161500 35 138 4.0 9.0 0.00 0.20 0.04 89 993.3
20210124161408 35 139 4.0 9.0 0.02 0.20 0.04 89 993.3
20210124161301 35 139 4.0 9.0 0.02 0.20 0.04 89 993.3
20210124161202 35 138 3.0 9.0 0.02 0.20 0.04 89 993.3
20210124161100 35 138 3.0 6.0 0.02 0.20 0.04 89 993.3
20210124161018 35 140 3.0 6.0 0.02 0.20 0.04 89 993.3
20210124160903 35 140 3.0 6.0 0.02 0.20 0.04 89 993.3
20210124160803 35 142 3.0 6.0 0.02 0.20 0.04 89 993.3
20210124160703 35 144 3.0 6.0 0.02 0.20 0.04 89 993.5
20210124160601 35 146 3.0 8.0 0.02 0.20 0.04 89 993.4
20210124160502 35 146 3.0 8.0 0.02 0.20 0.04 89 993.5
20210124160402 35 146 3.0 8.0 0.02 0.20 0.04 89 993.4
20210124160300 35 145 3.0 8.0 0.02 0.20 0.04 89 993.4
20210124160200 35 143 3.0 8.0 0.02 0.20 0.04 89 993.4
20210124160101 35 142 3.0 8.0 0.02 0.20 0.04 89 993.3
20210124160011 35 142 3.0 8.0 0.02 0.20 0.04 89 993.4
20210124155902 35 144 3.0 8.0 0.02 0.20 0.04 89 993.5
20210124155801 35 144 4.0 8.0 0.02 0.20 0.04 89 993.3
20210124155702 35 143 4.0 8.0 0.02 0.20 0.04 89 993.4
20210124155600 35 143 4.0 8.0 0.02 0.20 0.04 89 993.4
20210124155500 35 146 4.0 8.0 0.02 0.20 0.04 89 993.4
20210124155401 35 146 3.0 8.0 0.02 0.20 0.04 89 993.5
20210124155300 35 146 4.0 8.0 0.02 0.20 0.04 89 993.5
20210124155204 35 149 4.0 8.0 0.02 0.20 0.04 89 993.5
20210124155101 35 152 3.0 8.0 0.02 0.20 0.04 89 993.5
20210124155007 35 150 3.0 8.0 0.02 0.20 0.04 89 993.6
20210124154901 35 146 3.0 8.0 0.02 0.20 0.04 89 993.6
20210124154806 35 145 3.0 8.0 0.02 0.20 0.04 89 993.5
20210124154702 35 147 3.0 6.0 0.02 0.20 0.04 89 993.6
20210124154615 35 147 3.0 7.0 0.02 0.20 0.04 89 993.6
20210124154510 35 143 3.0 7.0 0.02 0.20 0.04 89 993.6
20210124154401 35 143 3.0 8.0 0.02 0.20 0.04 89 993.6
20210124154306 35 145 4.0 8.0 0.02 0.20 0.04 89 993.6
20210124154202 35 144 4.0 8.0 0.02 0.20 0.04 89 993.6
20210124154100 35 141 4.0 8.0 0.02 0.20 0.04 89 993.6
20210124154001 35 142 4.0 8.0 0.02 0.20 0.04 89 993.6
20210124153910 35 143 4.0 8.0 0.02 0.20 0.04 89 993.6
20210124153803 35 144 4.0 8.0 0.02 0.20 0.04 89 993.6
20210124153701 35 143 3.0 8.0 0.02 0.20 0.04 89 993.6
20210124153601 35 141 3.0 8.0 0.02 0.20 0.04 89 993.7
20210124153515 35 144 3.0 8.0 0.02 0.20 0.04 89 993.7
20210124153408 35 143 3.0 7.0 0.02 0.22 0.04 89 993.7
20210124153305 35 141 3.0 7.0 0.02 0.22 0.04 89 993.7
20210124153206 35 140 3.0 6.0 0.02 0.22 0.04 89 993.7
20210124153102 35 145 3.0 7.0 0.02 0.22 0.04 89 993.7
20210124153001 35 145 3.0 7.0 0.02 0.22 0.04 89 993.7
20210124152902 35 144 3.0 7.0 0.02 0.22 0.04 89 993.7
20210124152801 35 142 3.0 8.0 0.02 0.22 0.04 89 993.7
20210124152703 35 144 4.0 10.0 0.02 0.22 0.04 89 993.8
20210124152600 35 143 4.0 10.0 0.02 0.22 0.04 89 993.8
20210124152507 35 142 4.0 10.0 0.02 0.22 0.04 89 993.8
20210124152403 35 142 4.0 10.0 0.02 0.22 0.04 89 993.8
20210124152307 35 140 4.0 10.0 0.02 0.22 0.04 89 993.8
20210124152201 35 142 4.0 10.0 0.02 0.22 0.04 89 993.8
20210124152101 35 139 4.0 11.0 0.02 0.22 0.04 89 993.9
20210124152017 35 140 4.0 11.0 0.02 0.22 0.04 89 993.8
20210124151902 35 141 4.0 11.0 0.02 0.22 0.04 89 993.9
20210124151801 35 144 4.0 11.0 0.02 0.22 0.04 89 993.9
20210124151703 35 143 4.0 11.0 0.02 0.22 0.04 89 993.9
20210124151608 35 144 4.0 11.0 0.02 0.22 0.04 89 993.8
20210124151505 35 146 5.0 11.0 0.02 0.22 0.04 89 993.8
20210124151400 35 148 5.0 11.0 0.00 0.20 0.02 89 993.8
20210124151301 35 153 5.0 11.0 0.00 0.20 0.02 89 993.9
20210124151201 35 156 5.0 11.0 0.02 0.20 0.02 89 993.9
20210124151102 35 158 5.0 11.0 0.02 0.20 0.02 89 993.9
20210124151012 35 160 5.0 11.0 0.02 0.20 0.02 88 993.9
20210124150903 35 161 5.0 11.0 0.02 0.20 0.02 88 993.9
20210124150802 35 161 5.0 11.0 0.02 0.20 0.02 88 993.8
20210124150701 35 160 5.0 11.0 0.02 0.20 0.02 88 993.8
20210124150601 35 162 5.0 11.0 0.02 0.20 0.02 88 993.8
20210124150510 35 164 5.0 11.0 0.02 0.20 0.02 88 993.9
20210124150402 35 162 5.0 11.0 0.02 0.20 0.02 88 993.9
20210124150313 35 159 5.0 11.0 0.02 0.20 0.02 88 993.8
20210124150201 35 155 5.0 11.0 0.02 0.20 0.02 88 993.9
20210124150100 35 150 5.0 11.0 0.02 0.20 0.02 88 993.8
20210124150023 35 146 5.0 11.0 0.02 0.20 0.02 88 993.8
20210124145900 35 146 5.0 11.0 0.02 0.20 0.02 88 993.9
20210124145801 35 146 6.0 11.0 0.02 0.20 0.02 88 993.9
20210124145701 35 146 6.0 11.0 0.02 0.20 0.02 88 993.9
20210124145612 35 144 6.0 11.0 0.02 0.20 0.02 88 994.0
20210124145509 35 140 6.0 11.0 0.02 0.20 0.02 88 993.9
20210124145408 35 142 6.0 11.0 0.02 0.20 0.02 88 993.9
20210124145309 35 141 6.0 11.0 0.02 0.20 0.02 88 993.8
20210124145206 35 140 6.0 11.0 0.02 0.20 0.02 88 993.9
20210124145122 35 142 6.0 11.0 0.02 0.20 0.02 88 993.9
20210124145024 35 143 6.0 11.0 0.02 0.20 0.02 88 993.9
20210124144907 35 142 6.0 11.0 0.02 0.20 0.02 88 993.9
20210124144804 35 140 5.0 11.0 0.02 0.20 0.02 88 993.9
20210124144707 35 141 5.0 11.0 0.02 0.20 0.02 88 993.9
20210124144618 35 142 4.0 9.0 0.02 0.20 0.02 88 994.0
20210124144518 35 143 3.0 7.0 0.02 0.20 0.02 88 993.9
20210124144402 35 140 3.0 7.0 0.02 0.20 0.02 88 993.9
20210124144305 35 142 2.0 7.0 0.02 0.20 0.02 88 993.9
20210124144202 35 145 2.0 7.0 0.02 0.20 0.02 88 994.0
20210124144108 35 141 2.0 7.0 0.02 0.20 0.02 88 994.0
20210124144020 35 141 1.0 4.0 0.02 0.20 0.02 88 994.0
20210124143901 35 152 1.0 4.0 0.02 0.20 0.02 88 994.1
20210124143802 35 152 1.0 6.0 0.02 0.20 0.02 88 994.0
20210124143701 35 151 1.0 6.0 0.02 0.20 0.02 88 994.0
20210124143635 35 150 1.0 6.0 0.02 0.20 0.02 88 994.1
20210124143510 35 147 2.0 6.0 0.02 0.20 0.02 88 994.1
20210124143407 36 144 2.0 6.0 0.02 0.20 0.02 88 994.0
20210124143304 36 145 2.0 6.0 0.02 0.20 0.02 88 993.9
20210124143202 36 145 2.0 6.0 0.02 0.20 0.02 88 993.9
20210124143105 36 148 2.0 6.0 0.02 0.20 0.02 88 994.0
20210124143011 36 148 2.0 6.0 0.02 0.20 0.02 88 994.0
20210124142904 36 144 2.0 6.0 0.02 0.20 0.02 88 994.0
20210124142801 36 144 2.0 4.0 0.02 0.20 0.02 88 994.0
20210124142702 36 147 2.0 4.0 0.02 0.20 0.02 88 994.0
20210124142609 36 147 2.0 4.0 0.02 0.20 0.02 88 994.0
20210124142517 36 151 2.0 4.0 0.02 0.20 0.02 88 994.0
20210124142401 36 159 2.0 4.0 0.02 0.20 0.02 88 994.0
20210124142306 36 162 2.0 9.0 0.02 0.20 0.02 88 994.1
20210124142203 36 160 2.0 9.0 0.02 0.20 0.02 88 994.1
20210124142101 36 158 3.0 9.0 0.02 0.20 0.02 88 994.1
20210124142009 36 157 3.0 9.0 0.02 0.20 0.02 88 994.0
20210124141903 36 153 3.0 9.0 0.02 0.20 0.02 88 994.1
20210124141813 36 152 3.0 9.0 0.02 0.20 0.02 88 994.1
20210124141706 36 154 4.0 9.0 0.02 0.20 0.02 88 994.0
20210124141600 36 153 4.0 9.0 0.02 0.20 0.02 88 994.1
20210124141521 36 152 4.0 9.0 0.02 0.20 0.02 88 994.0
20210124141400 36 151 4.0 9.0 0.02 0.20 0.02 88 994.0
20210124141302 36 148 4.0 9.0 0.00 0.18 0.00 88 994.0
20210124141205 36 147 4.0 8.0 0.00 0.18 0.00 88 994.0
20210124141104 36 146 3.0 8.0 0.00 0.18 0.00 88 994.0
20210124141012 36 149 3.0 7.0 0.00 0.18 0.00 88 994.2
20210124140901 36 150 3.0 7.0 0.00 0.18 0.00 88 994.2
20210124140802 36 153 3.0 7.0 0.00 0.18 0.00 88 994.2
20210124140701 36 148 2.0 6.0 0.00 0.18 0.00 88 994.1
20210124140601 36 148 2.0 6.0 0.00 0.18 0.00 88 994.2
20210124140500 36 148 2.0 6.0 0.00 0.18 0.00 88 994.2
20210124140403 36 144 2.0 6.0 0.00 0.18 0.00 88 994.2
20210124140318 36 147 2.0 4.0 0.00 0.18 0.00 88 994.3
20210124140202 36 149 2.0 4.0 0.00 0.18 0.00 88 994.2
20210124140107 36 148 2.0 5.0 0.00 0.18 0.00 88 994.2
20210124140017 36 147 2.0 5.0 0.00 0.18 0.00 88 994.2
20210124135901 36 147 2.0 5.0 0.00 0.18 0.00 88 994.3
20210124135801 36 146 2.0 5.0 0.00 0.18 0.00 88 994.2
20210124135701 36 146 2.0 5.0 0.00 0.18 0.00 88 994.2
20210124135602 36 144 2.0 5.0 0.00 0.18 0.00 88 994.3
20210124135517 36 143 2.0 5.0 0.00 0.18 0.00 88 994.3
20210124135401 36 143 2.0 5.0 0.00 0.18 0.00 88 994.3
20210124135305 36 142 2.0 5.0 0.00 0.18 0.00 88 994.3
20210124135205 36 139 2.0 5.0 0.00 0.18 0.00 88 994.2
20210124135102 36 137 2.0 5.0 0.00 0.18 0.00 88 994.3
20210124135000 36 134 2.0 5.0 0.00 0.18 0.00 88 994.3
20210124134902 36 132 2.0 5.0 0.00 0.18 0.00 88 994.3
20210124134800 36 138 2.0 8.0 0.00 0.18 0.00 88 994.3
20210124134701 36 137 3.0 8.0 0.00 0.18 0.00 88 994.3
20210124134628 36 138 3.0 8.0 0.00 0.18 0.00 88 994.3
20210124134523 36 139 3.0 8.0 0.00 0.18 0.00 88 994.3
20210124134402 36 138 3.0 8.0 0.00 0.18 0.00 88 994.3
20210124134306 36 138 3.0 8.0 0.00 0.18 0.00 88 994.4
20210124134201 36 139 3.0 8.0 0.00 0.18 0.00 88 994.4
20210124134102 36 141 4.0 8.0 0.00 0.18 0.00 88 994.4
20210124134020 36 145 4.0 8.0 0.00 0.18 0.00 88 994.4
20210124133901 36 149 4.0 8.0 0.00 0.18 0.00 88 994.4
20210124133805 36 147 3.0 8.0 0.00 0.18 0.00 88 994.4
20210124133713 36 148 4.0 8.0 0.00 0.18 0.00 88 994.4
20210124133600 36 149 3.0 8.0 0.00 0.18 0.00 88 994.4
20210124133522 36 153 4.0 8.0 0.00 0.18 0.00 88 994.4
20210124133404 36 156 4.0 8.0 0.00 0.18 0.00 88 994.4
20210124133301 36 162 4.0 8.0 0.00 0.18 0.00 88 994.5
20210124133201 36 164 4.0 10.0 0.00 0.18 0.00 88 994.5
20210124133101 36 165 4.0 10.0 0.00 0.18 0.00 88 994.5
20210124133026 36 163 4.0 10.0 0.00 0.18 0.00 88 994.6
20210124132900 36 159 4.0 10.0 0.00 0.18 0.00 88 994.6
20210124132800 36 161 4.0 10.0 0.00 0.18 0.00 88 994.5
20210124132700 36 162 4.0 10.0 0.00 0.18 0.00 88 994.6
20210124132603 36 163 4.0 10.0 0.00 0.18 0.00 88 994.6
20210124132510 36 161 4.0 10.0 0.00 0.18 0.00 88 994.6
20210124132403 36 162 4.0 10.0 0.00 0.18 0.00 88 994.6
20210124132300 36 156 3.0 10.0 0.00 0.18 0.00 88 994.7
20210124132201 36 148 3.0 8.0 0.00 0.18 0.00 88 994.7
20210124132101 36 157 3.0 11.0 0.00 0.18 0.00 88 994.8
20210124132011 36 157 3.0 11.0 0.00 0.18 0.00 88 994.8
20210124131902 36 158 4.0 11.0 0.00 0.18 0.00 88 994.8
20210124131801 36 158 4.0 11.0 0.00 0.18 0.00 88 994.8
20210124131700 36 155 4.0 11.0 0.00 0.18 0.00 88 994.8
20210124131600 36 154 4.0 11.0 0.00 0.18 0.00 88 994.8
20210124131518 36 153 4.0 11.0 0.00 0.18 0.00 88 994.6
20210124131400 36 151 4.0 11.0 0.00 0.20 0.00 88 994.5
20210124131308 36 150 4.0 11.0 0.00 0.20 0.00 88 994.5
20210124131202 36 152 5.0 11.0 0.00 0.20 0.00 88 994.6
20210124131102 36 145 4.0 11.0 0.00 0.20 0.00 88 994.6
20210124131005 36 148 4.0 11.0 0.00 0.20 0.00 88 994.6
20210124130900 36 148 4.0 11.0 0.00 0.20 0.00 88 994.6
20210124130800 36 145 4.0 11.0 0.00 0.20 0.00 88 994.7
20210124130707 36 151 4.0 11.0 0.00 0.20 0.00 88 994.7
20210124130600 36 150 5.0 12.0 0.00 0.20 0.00 88 994.8
20210124130506 36 150 5.0 12.0 0.00 0.20 0.00 88 994.8
20210124130410 36 152 5.0 12.0 0.00 0.20 0.00 88 994.8
20210124130312 36 154 5.0 12.0 0.00 0.20 0.00 88 994.8
20210124130201 36 154 5.0 12.0 0.00 0.20 0.00 88 994.9
20210124130125 36 157 5.0 12.0 0.00 0.20 0.00 88 994.8
20210124130000 36 155 5.0 12.0 0.00 0.20 0.00 88 994.9
20210124125900 36 156 5.0 12.0 0.00 0.20 0.00 89 994.9
20210124125801 36 155 5.0 12.0 0.00 0.20 0.00 89 995.0
20210124125707 36 150 5.0 12.0 0.00 0.20 0.00 89 995.0
20210124125600 36 151 4.0 11.0 0.00 0.20 0.00 89 995.0
20210124125511 36 152 4.0 11.0 0.00 0.20 0.00 89 995.0
20210124125401 36 149 4.0 11.0 0.00 0.20 0.00 89 995.0
20210124125302 36 144 4.0 11.0 0.00 0.20 0.00 89 995.0
20210124125201 36 147 4.0 8.0 0.00 0.20 0.00 89 995.0
20210124125101 36 143 4.0 11.0 0.00 0.20 0.00 89 995.1
20210124125013 36 142 5.0 11.0 0.00 0.20 0.00 89 995.1
20210124124901 36 144 5.0 11.0 0.00 0.20 0.00 89 995.0
20210124124800 36 144 5.0 11.0 0.00 0.20 0.00 89 995.1
20210124124701 36 149 5.0 11.0 0.00 0.20 0.00 89 995.1
20210124124602 36 148 6.0 11.0 0.00 0.20 0.00 89 995.1
20210124124524 36 147 6.0 11.0 0.00 0.20 0.00 89 995.2
20210124124405 36 149 6.0 11.0 0.00 0.20 0.00 89 995.2
20210124124301 36 148 6.0 11.0 0.00 0.20 0.00 89 995.2
20210124124205 36 146 6.0 11.0 0.00 0.20 0.00 89 995.2
20210124124101 36 146 6.0 11.0 0.00 0.20 0.00 89 995.3
20210124124012 36 149 5.0 11.0 0.00 0.20 0.00 89 995.4
20210124123900 36 148 5.0 11.0 0.00 0.20 0.00 89 995.4
20210124123801 36 150 5.0 11.0 0.00 0.20 0.00 89 995.5
20210124123701 36 147 5.0 11.0 0.00 0.20 0.00 89 995.4
20210124123601 36 148 5.0 11.0 0.00 0.20 0.00 89 995.4
20210124123514 36 150 5.0 11.0 0.00 0.20 0.00 89 995.5
20210124123402 36 148 5.0 11.0 0.00 0.20 0.00 89 995.5
20210124123301 36 152 5.0 11.0 0.00 0.20 0.00 89 995.5
20210124123200 36 156 5.0 11.0 0.00 0.20 0.00 90 995.5
20210124123104 36 160 4.0 11.0 0.00 0.20 0.00 90 995.5
20210124123013 36 157 4.0 11.0 0.00 0.20 0.00 90 995.6
20210124122907 36 159 4.0 11.0 0.00 0.20 0.00 90 995.6
20210124122801 36 165 3.0 11.0 0.00 0.20 0.00 90 995.7
20210124122701 36 166 3.0 11.0 0.00 0.20 0.00 90 995.7
20210124122600 36 169 3.0 7.0 0.00 0.20 0.00 90 995.7
20210124122514 36 168 3.0 11.0 0.00 0.20 0.00 90 995.7
20210124122404 36 168 4.0 11.0 0.00 0.20 0.00 90 995.7
20210124122313 36 165 4.0 11.0 0.00 0.20 0.00 90 995.8
20210124122203 36 164 3.0 11.0 0.00 0.20 0.00 90 995.9
20210124122109 36 164 3.0 11.0 0.00 0.20 0.00 90 995.8
20210124122000 36 163 4.0 11.0 0.00 0.20 0.00 90 995.8
20210124121904 36 159 4.0 11.0 0.00 0.20 0.00 90 995.8
20210124121800 36 155 3.0 11.0 0.00 0.20 0.00 90 995.9
20210124121702 36 155 3.0 11.0 0.00 0.20 0.00 90 995.9
20210124121601 36 155 3.0 11.0 0.00 0.20 0.00 90 995.9
20210124121513 36 153 3.0 8.0 0.00 0.20 0.00 90 996.0
20210124121401 36 154 3.0 8.0 0.00 0.20 0.00 90 996.1
20210124121301 36 153 3.0 8.0 0.00 0.20 0.00 90 996.1
20210124121200 36 150 3.0 8.0 0.00 0.20 0.00 90 996.1
20210124121102 36 148 3.0 8.0 0.00 0.20 0.00 90 996.2
20210124121024 36 147 3.0 8.0 0.00 0.20 0.00 90 996.2
20210124120901 36 145 2.0 8.0 0.00 0.20 0.00 90 996.2
20210124120801 36 145 3.0 8.0 0.00 0.20 0.00 90 996.3
20210124120700 36 144 3.0 8.0 0.00 0.20 0.00 90 996.3
20210124120602 36 143 3.0 8.0 0.00 0.20 0.00 90 996.4
20210124120517 36 143 3.0 7.0 0.00 0.20 0.00 90 996.3
20210124120402 36 144 3.0 7.0 0.00 0.20 0.00 90 996.4
20210124120301 35 146 3.0 6.0 0.00 0.20 0.00 90 996.4
20210124120202 36 145 3.0 6.0 0.00 0.20 0.00 90 996.4
20210124120100 35 146 3.0 7.0 0.00 0.20 0.00 90 996.5
20210124120013 35 147 3.0 7.0 0.00 0.20 0.00 90 996.5
20210124115901 35 148 3.0 7.0 0.00 0.20 0.00 90 996.5
20210124115801 35 147 3.0 7.0 0.00 0.20 0.00 90 996.6
20210124115707 35 147 3.0 7.0 0.00 0.20 0.00 90 996.6
20210124115616 35 145 3.0 7.0 0.00 0.20 0.00 90 996.6
20210124115517 35 146 3.0 7.0 0.00 0.20 0.00 90 996.5
20210124115401 35 147 3.0 7.0 0.00 0.20 0.00 90 996.6
20210124115300 35 148 3.0 7.0 0.00 0.20 0.00 90 996.6
20210124115210 35 149 3.0 7.0 0.00 0.20 0.00 90 996.6
20210124115106 35 149 3.0 6.0 0.00 0.20 0.00 90 996.5
20210124115001 35 152 3.0 6.0 0.00 0.20 0.00 90 996.6
20210124114900 35 149 3.0 6.0 0.00 0.20 0.00 90 996.6
20210124114800 35 150 3.0 6.0 0.00 0.20 0.00 90 996.5
20210124114703 35 151 3.0 6.0 0.00 0.20 0.00 90 996.6
20210124114601 35 150 3.0 6.0 0.00 0.20 0.00 90 996.6
20210124114510 35 151 4.0 7.0 0.00 0.20 0.00 90 996.6
20210124114401 35 146 4.0 7.0 0.00 0.20 0.00 90 996.5
20210124114301 35 145 3.0 7.0 0.00 0.20 0.00 90 996.5
20210124114201 35 145 3.0 7.0 0.00 0.20 0.00 90 996.5
20210124114104 35 144 3.0 7.0 0.00 0.20 0.00 90 996.5
20210124114000 35 142 3.0 7.0 0.00 0.20 0.00 90 996.5
20210124113901 35 144 3.0 7.0 0.00 0.20 0.00 90 996.5
20210124113803 35 143 3.0 7.0 0.00 0.20 0.00 90 996.5
20210124113701 35 143 3.0 7.0 0.00 0.20 0.00 90 996.5
20210124113601 35 143 3.0 7.0 0.00 0.20 0.00 90 996.4
20210124113510 35 141 3.0 6.0 0.00 0.20 0.00 90 996.5
20210124113406 35 140 3.0 6.0 0.00 0.22 0.00 90 996.5
20210124113328 35 141 3.0 6.0 0.00 0.22 0.00 90 996.4
20210124113305 35 142 3.0 6.0 0.00 0.22 0.00 90 996.5
20210124113205 35 141 3.0 8.0 0.00 0.22 0.00 90 996.5
20210124113024 35 142 4.0 8.0 0.00 0.22 0.00 90 996.5
20210124112900 35 143 3.0 8.0 0.00 0.22 0.00 90 996.4
20210124112800 35 144 3.0 8.0 0.00 0.22 0.00 90 996.5
20210124112709 35 145 3.0 8.0 0.00 0.22 0.00 90 996.4
20210124112601 35 146 3.0 8.0 0.00 0.22 0.00 90 996.5
20210124112516 35 143 4.0 8.0 0.00 0.22 0.00 90 996.5
20210124112406 35 144 4.0 8.0 0.00 0.24 0.00 90 996.5
20210124112306 35 145 4.0 8.0 0.00 0.24 0.00 90 996.5
20210124112205 35 144 4.0 8.0 0.00 0.24 0.00 90 996.5
20210124112103 35 146 4.0 8.0 0.00 0.24 0.00 90 996.5
20210124112006 35 145 3.0 8.0 0.00 0.24 0.00 90 996.5
20210124111902 35 145 4.0 8.0 0.00 0.28 0.00 90 996.5
20210124111801 35 145 4.0 8.0 0.00 0.28 0.00 90 996.5
20210124111705 35 144 4.0 8.0 0.00 0.28 0.00 90 996.4
20210124111610 35 143 4.0 8.0 0.00 0.28 0.00 90 996.5
20210124111512 35 148 4.0 6.0 0.00 0.28 0.00 90 996.5
20210124111401 35 149 3.0 4.0 0.00 0.30 0.00 90 996.4
20210124111306 35 95 8.0 114.0 0.00 0.30 0.00 90 996.5
20210124111201 34 86 11.0 114.0 0.00 0.30 0.00 90 996.5
20210124111101 34 75 19.0 114.0 0.00 0.30 0.00 90 996.6
20210124111009 34 75 19.0 114.0 0.00 0.30 0.00 90 996.6
20210124110906 34 75 19.0 114.0 0.00 0.32 0.00 90 996.6
20210124110800 34 75 19.0 114.0 0.00 0.32 0.00 90 996.6
20210124110704 34 75 19.0 114.0 0.00 0.32 0.00 90 996.6
20210124110600 34 75 19.0 114.0 0.00 0.32 0.00 90 996.6
20210124110506 34 75 19.0 114.0 0.00 0.32 0.00 90 996.6
20210124110401 33 75 19.0 114.0 0.00 0.32 0.00 90 996.6
20210124110304 33 156 2.0 2.0 0.00 0.32 0.00 90 996.6
20210124110200 33 156 2.0 2.0 0.00 0.32 0.00 90 996.9
20210124110110 33 156 2.0 2.0 0.00 0.32 0.00 90 996.9
20210124110011 33 156 2.0 2.0 0.00 0.32 0.00 90 996.9
20210124105901 33 156 2.0 2.0 0.00 0.32 0.00 90 996.9
20210124105801 33 156 2.0 2.0 0.00 0.32 0.00 90 996.9
20210124105701 33 156 2.0 2.0 0.00 0.32 0.00 90 996.9
20210124105600 33 156 2.0 2.0 0.00 0.32 0.00 90 996.9
20210124105509 33 156 2.0 2.0 0.00 0.32 0.00 90 996.9
20210124105407 33 156 2.0 2.0 0.00 0.32 0.00 90 996.9
20210124105302 33 156 2.0 2.0 0.00 0.32 0.00 90 997.0
20210124105201 33 156 2.0 2.0 0.00 0.32 0.00 90 997.0
20210124105106 33 156 2.0 2.0 0.00 0.32 0.00 90 997.0
20210124105020 33 156 2.0 2.0 0.00 0.32 0.00 90 997.0
20210124104901 33 156 2.0 2.0 0.00 0.32 0.00 91 997.0
20210124104803 33 156 2.0 2.0 0.00 0.32 0.00 91 997.0
20210124104708 33 156 2.0 2.0 0.00 0.32 0.00 91 997.1
20210124104608 33 156 2.0 2.0 0.00 0.32 0.00 91 997.2
20210124104544 33 156 2.0 2.0 0.00 0.32 0.00 91 997.1
20210124104413 33 156 2.0 2.0 0.00 0.32 0.00 91 997.2
20210124104309 33 156 2.0 2.0 0.00 0.32 0.00 91 997.1
20210124104213 33 156 2.0 2.0 0.00 0.32 0.00 91 997.1
20210124104130 33 156 2.0 2.0 0.00 0.32 0.00 91 997.3
20210124104021 33 156 2.0 2.0 0.00 0.32 0.00 91 997.3
20210124103908 33 156 2.0 2.0 0.00 0.32 0.00 91 997.3
20210124103809 33 156 2.0 2.0 0.00 0.32 0.00 91 997.3
20210124103703 33 156 2.0 2.0 0.00 0.32 0.00 91 997.2
20210124103600 33 156 2.0 2.0 0.00 0.32 0.00 91 997.2
20210124103516 33 156 2.0 2.0 0.00 0.32 0.00 91 997.3
20210124103401 33 156 2.0 2.0 0.00 0.32 0.00 91 997.3
20210124103300 33 156 2.0 2.0 0.00 0.32 0.00 91 997.2
20210124103202 33 156 2.0 2.0 0.00 0.32 0.00 91 997.2
20210124103101 33 156 2.0 2.0 0.00 0.32 0.00 91 997.1
20210124103001 33 156 2.0 2.0 0.00 0.32 0.00 91 997.0
20210124102901 33 156 2.0 2.0 0.00 0.32 0.00 91 997.1
20210124102801 33 156 2.0 2.0 0.00 0.32 0.00 91 997.1
20210124102702 33 156 3.0 7.0 0.00 0.32 0.00 91 997.1
20210124102602 33 156 3.0 7.0 0.00 0.32 0.00 91 997.1
20210124102515 33 156 4.0 7.0 0.00 0.32 0.00 91 997.1
20210124102402 33 157 4.0 7.0 0.00 0.32 0.00 91 997.1
20210124102306 33 155 4.0 7.0 0.00 0.32 0.00 91 997.1
20210124102200 33 153 4.0 7.0 0.00 0.32 0.00 91 997.1
20210124102104 33 151 5.0 7.0 0.00 0.32 0.00 91 997.1
20210124102000 33 147 5.0 7.0 0.00 0.32 0.00 91 997.1
20210124101903 33 144 5.0 7.0 0.00 0.32 0.00 91 997.1
20210124101800 33 143 5.0 7.0 0.00 0.32 0.00 91 997.1
20210124101700 33 142 5.0 7.0 0.00 0.32 0.00 91 997.1
20210124101601 33 140 5.0 7.0 0.00 0.32 0.00 91 997.1
20210124101508 33 137 5.0 7.0 0.00 0.32 0.00 91 997.1
20210124101400 33 133 4.0 7.0 0.00 0.32 0.00 91 997.1
20210124101301 33 132 4.0 7.0 0.00 0.32 0.00 91 997.2
20210124101201 33 132 4.0 7.0 0.00 0.32 0.00 91 997.2
20210124101100 33 134 4.0 7.0 0.00 0.32 0.00 91 997.2
20210124101011 33 139 4.0 7.0 0.00 0.32 0.00 91 997.2
20210124100900 33 144 4.0 7.0 0.00 0.32 0.00 91 997.3
20210124100802 33 145 4.0 10.0 0.00 0.32 0.00 91 997.3
20210124100700 33 145 4.0 10.0 0.00 0.32 0.00 91 997.4
20210124100601 33 147 4.0 10.0 0.00 0.32 0.00 91 997.4
20210124100511 33 150 4.0 10.0 0.00 0.32 0.00 91 997.4
20210124100401 33 150 4.0 10.0 0.00 0.32 0.00 91 997.4
20210124100312 33 152 4.0 10.0 0.00 0.32 0.00 91 997.4
20210124100201 33 152 4.0 10.0 0.00 0.32 0.00 91 997.4
20210124100102 33 152 4.0 10.0 0.00 0.32 0.00 91 997.4
20210124100010 33 153 4.0 10.0 0.00 0.32 0.00 91 997.4
20210124095900 33 152 4.0 10.0 0.00 0.32 0.00 91 997.4
20210124095806 33 152 3.0 6.0 0.00 0.32 0.00 91 997.4
20210124095701 33 151 3.0 6.0 0.00 0.32 0.00 91 997.4
20210124095610 33 147 3.0 6.0 0.00 0.32 0.00 91 997.4
20210124095510 33 144 3.0 7.0 0.00 0.32 0.00 91 997.4
20210124095401 33 142 3.0 7.0 0.00 0.32 0.00 91 997.4
20210124095313 33 142 3.0 7.0 0.00 0.32 0.00 91 997.4
20210124095213 33 141 3.0 7.0 0.00 0.32 0.00 91 997.4
20210124095121 33 141 3.0 7.0 0.00 0.32 0.00 91 997.4
20210124095020 33 140 3.0 7.0 0.00 0.32 0.00 91 997.4
20210124094904 32 139 3.0 7.0 0.00 0.32 0.00 91 997.4
20210124094802 32 139 3.0 7.0 0.00 0.32 0.00 91 997.4
20210124094710 32 140 3.0 7.0 0.00 0.32 0.00 91 997.5
20210124094621 32 140 3.0 7.0 0.00 0.32 0.00 91 997.5
20210124094525 32 140 3.0 7.0 0.00 0.32 0.00 91 997.4
20210124094403 32 140 3.0 7.0 0.00 0.32 0.00 90 997.4
20210124094303 32 140 2.0 6.0 0.00 0.32 0.00 90 997.4
20210124094201 32 140 3.0 6.0 0.00 0.32 0.00 90 997.4
20210124094105 32 140 3.0 6.0 0.00 0.32 0.00 90 997.4
20210124094000 32 142 3.0 7.0 0.00 0.32 0.00 90 997.4
20210124093902 32 140 3.0 7.0 0.00 0.32 0.00 90 997.4
20210124093802 32 141 3.0 7.0 0.00 0.32 0.00 90 997.4
20210124093715 32 142 3.0 7.0 0.00 0.32 0.00 90 997.4
20210124093601 32 144 3.0 7.0 0.00 0.32 0.00 90 997.4
20210124093501 32 145 3.0 7.0 0.00 0.32 0.00 90 997.4
20210124093401 32 148 3.0 7.0 0.00 0.32 0.00 90 997.4
20210124093308 32 147 4.0 7.0 0.00 0.32 0.00 90 997.4
20210124093200 32 148 3.0 7.0 0.00 0.32 0.00 90 997.5
20210124093106 31 149 3.0 7.0 0.00 0.32 0.00 90 997.4
20210124093000 31 148 3.0 6.0 0.00 0.32 0.00 90 997.5
20210124092900 31 152 3.0 6.0 0.00 0.32 0.00 90 997.4
20210124092800 31 153 3.0 6.0 0.00 0.32 0.00 90 997.4
20210124092700 31 153 3.0 6.0 0.00 0.32 0.00 90 997.5
20210124092559 31 152 3.0 6.0 0.00 0.32 0.00 90 997.5
20210124092524 31 152 3.0 6.0 0.00 0.32 0.00 90 997.5
20210124092401 31 148 2.0 6.0 0.00 0.32 0.00 90 997.5
20210124092302 31 149 2.0 6.0 0.00 0.32 0.00 90 997.5
20210124092205 31 149 2.0 6.0 0.00 0.32 0.00 90 997.5
20210124092101 31 147 2.0 6.0 0.00 0.32 0.00 90 997.5
20210124092001 31 144 2.0 6.0 0.00 0.32 0.00 90 997.6
20210124091900 31 143 2.0 6.0 0.00 0.32 0.00 90 997.5
20210124091800 31 140 2.0 6.0 0.00 0.32 0.00 90 997.5
20210124091659 31 139 2.0 6.0 0.00 0.32 0.00 90 997.5
20210124091602 31 139 2.0 6.0 0.00 0.32 0.00 90 997.5
20210124091517 31 139 2.0 6.0 0.00 0.32 0.00 90 997.4
20210124091400 31 139 2.0 6.0 0.00 0.32 0.00 90 997.5
20210124091301 31 138 2.0 6.0 0.00 0.32 0.00 90 997.5
20210124091201 31 137 2.0 4.0 0.00 0.32 0.00 90 997.5
20210124091108 30 136 2.0 4.0 0.00 0.32 0.00 90 997.4
20210124091000 30 137 2.0 4.0 0.00 0.32 0.00 90 997.4
20210124090903 30 139 2.0 4.0 0.00 0.32 0.00 90 997.5
20210124090801 30 136 2.0 4.0 0.00 0.32 0.00 90 997.5
20210124090701 30 137 2.0 4.0 0.00 0.32 0.00 90 997.4
20210124090609 30 136 2.0 4.0 0.00 0.32 0.00 90 997.5
20210124090506 30 138 2.0 4.0 0.00 0.32 0.00 90 997.4
20210124090402 30 138 2.0 5.0 0.00 0.32 0.00 90 997.5
20210124090300 30 138 2.0 5.0 0.00 0.32 0.00 90 997.5
20210124090204 30 139 2.0 5.0 0.00 0.32 0.00 90 997.4
20210124090101 30 141 2.0 5.0 0.00 0.32 0.00 90 997.5
20210124090019 30 142 2.0 5.0 0.00 0.32 0.00 90 997.5
20210124085901 30 141 2.0 5.0 0.00 0.35 0.00 90 997.5
20210124085811 30 142 2.0 5.0 0.00 0.35 0.00 90 997.6
20210124085704 30 142 2.0 5.0 0.00 0.35 0.00 90 997.6
20210124085618 30 142 2.0 5.0 0.00 0.35 0.00 90 997.5
20210124085500 30 143 3.0 6.0 0.00 0.35 0.00 90 997.5
20210124085400 30 143 3.0 6.0 0.00 0.35 0.00 90 997.5
20210124085306 30 143 3.0 6.0 0.00 0.35 0.00 90 997.5
20210124085201 30 142 3.0 6.0 0.00 0.35 0.00 90 997.5
20210124085102 30 142 3.0 6.0 0.00 0.35 0.00 90 997.5
20210124085009 30 140 3.0 6.0 0.00 0.35 0.00 90 997.5
20210124084904 30 140 3.0 6.0 0.00 0.37 0.00 90 997.6
20210124084800 30 140 3.0 6.0 0.00 0.37 0.00 90 997.5
20210124084702 30 140 3.0 6.0 0.00 0.37 0.00 90 997.5
20210124084607 30 140 3.0 6.0 0.00 0.37 0.00 90 997.4
20210124084511 30 139 3.0 6.0 0.00 0.37 0.00 90 997.5
20210124084403 30 139 3.0 6.0 0.00 0.37 0.00 90 997.5
20210124084302 29 139 3.0 6.0 0.00 0.37 0.00 90 997.5
20210124084201 29 140 2.0 6.0 0.00 0.37 0.00 90 997.5
20210124084101 29 139 2.0 6.0 0.00 0.37 0.00 90 997.5
20210124084000 29 141 2.0 6.0 0.00 0.37 0.00 90 997.5
20210124083900 29 141 2.0 6.0 0.00 0.37 0.00 90 997.5
20210124083800 29 140 2.0 6.0 0.00 0.37 0.00 90 997.5
20210124083701 29 138 2.0 6.0 0.00 0.37 0.00 90 997.6
20210124083601 29 139 2.0 6.0 0.00 0.37 0.00 90 997.5
20210124083517 29 139 2.0 6.0 0.00 0.37 0.00 90 997.6
20210124083401 29 138 2.0 6.0 0.00 0.37 0.00 90 997.6
20210124083306 29 135 2.0 6.0 0.00 0.37 0.00 90 997.5
20210124083201 29 134 2.0 6.0 0.00 0.37 0.00 90 997.6
20210124083100 29 133 2.0 6.0 0.00 0.37 0.00 90 997.6
20210124083000 29 130 1.0 5.0 0.00 0.37 0.00 90 997.6
20210124082903 29 129 1.0 5.0 0.00 0.37 0.00 90 997.6
20210124082801 29 132 1.0 5.0 0.00 0.37 0.00 89 997.5
20210124082701 29 137 1.0 3.0 0.00 0.37 0.00 90 997.6
20210124082602 29 139 1.0 4.0 0.00 0.37 0.00 90 997.6
20210124082511 29 139 1.0 4.0 0.00 0.37 0.00 90 997.6
20210124082359 29 141 1.0 4.0 0.00 0.39 0.00 90 997.5
20210124082301 29 116 3.0 111.0 0.00 0.39 0.00 89 997.6
20210124082200 29 116 3.0 111.0 0.00 0.39 0.00 89 997.6
20210124082103 29 119 3.0 111.0 0.00 0.39 0.00 89 997.6
20210124082010 29 121 4.0 111.0 0.00 0.39 0.00 89 997.6
20210124081900 29 121 4.0 111.0 0.00 0.39 0.00 90 997.6
20210124081800 29 122 4.0 111.0 0.00 0.39 0.00 89 997.5
20210124081700 29 114 5.0 111.0 0.00 0.39 0.00 89 997.5
20210124081608 29 79 7.0 111.0 0.00 0.39 0.00 89 997.5
20210124081520 29 82 8.0 111.0 0.00 0.39 0.00 89 997.5
20210124081402 29 80 8.0 111.0 0.00 0.39 0.00 89 997.5
20210124081301 29 72 6.0 94.0 0.00 0.39 0.00 89 997.5
20210124081203 29 63 8.0 112.0 0.00 0.39 0.00 89 997.5
20210124081102 29 62 8.0 112.0 0.00 0.39 0.00 89 997.5
20210124081003 29 57 7.0 112.0 0.00 0.39 0.00 89 997.5
20210124080903 29 60 7.0 112.0 0.00 0.39 0.00 89 997.5
20210124080801 29 64 8.0 112.0 0.00 0.39 0.00 89 997.4
20210124080700 29 76 7.0 112.0 0.00 0.39 0.00 89 997.4
20210124080601 29 105 5.0 112.0 0.00 0.39 0.00 89 997.5
20210124080507 29 101 4.0 112.0 0.00 0.39 0.00 89 997.5
20210124080402 29 106 4.0 112.0 0.00 0.41 0.00 89 997.5
20210124080304 29 107 5.0 112.0 0.00 0.41 0.00 89 997.4
20210124080200 29 136 3.0 20.0 0.00 0.41 0.00 89 997.5
20210124080100 29 136 3.0 20.0 0.00 0.41 0.00 89 997.5
20210124080019 29 136 3.0 20.0 0.00 0.41 0.00 89 997.5
20210124075900 29 135 3.0 20.0 0.00 0.43 0.00 89 997.4
20210124075803 29 140 2.0 20.0 0.00 0.43 0.00 89 997.4
20210124075701 29 142 1.0 20.0 0.00 0.43 0.00 89 997.4
20210124075601 29 142 1.0 20.0 0.00 0.43 0.00 89 997.4
20210124075511 29 142 1.0 20.0 0.00 0.43 0.00 89 997.3
20210124075400 29 135 1.0 10.0 0.00 0.43 0.00 89 997.3
20210124075301 29 136 1.0 8.0 0.00 0.43 0.00 89 997.3
20210124075200 29 137 0.0 7.0 0.00 0.43 0.00 89 997.3
20210124075100 29 139 0.0 2.0 0.00 0.43 0.00 89 997.3
20210124075000 28 138 0.0 2.0 0.00 0.43 0.00 89 997.3
20210124074902 28 136 0.0 2.0 0.00 0.43 0.00 89 997.3
20210124074800 28 136 0.0 2.0 0.00 0.43 0.00 89 997.3
20210124074702 28 136 0.0 2.0 0.00 0.43 0.00 89 997.3
20210124074604 28 136 0.0 2.0 0.00 0.43 0.00 89 997.1
20210124074501 28 136 0.0 2.0 0.00 0.43 0.00 89 997.2
20210124074401 28 134 0.0 2.0 0.00 0.43 0.00 89 997.1
20210124074302 28 133 0.0 2.0 0.00 0.43 0.00 89 997.1
20210124074203 28 132 0.0 2.0 0.00 0.43 0.00 89 997.1
20210124074102 28 132 0.0 2.0 0.00 0.43 0.00 89 997.1
20210124074000 28 131 0.0 2.0 0.00 0.43 0.00 89 997.1
20210124073900 28 130 0.0 2.0 0.00 0.43 0.00 89 997.2
20210124073801 28 130 0.0 2.0 0.00 0.43 0.00 89 997.1
20210124073703 28 131 1.0 2.0 0.00 0.43 0.00 89 997.1
20210124073601 28 132 1.0 2.0 0.00 0.43 0.00 89 997.1
20210124073501 28 132 1.0 2.0 0.00 0.43 0.00 89 997.0
20210124073404 28 132 1.0 2.0 0.00 0.43 0.00 89 997.0
20210124073302 28 130 1.0 2.0 0.00 0.43 0.00 89 997.0
20210124073204 28 130 1.0 2.0 0.00 0.43 0.00 89 997.0
20210124073103 28 129 1.0 2.0 0.00 0.43 0.00 89 997.0
20210124073019 28 129 1.0 2.0 0.00 0.43 0.00 89 997.1
20210124072901 28 130 1.0 2.0 0.00 0.43 0.00 89 997.0
20210124072801 28 129 1.0 2.0 0.00 0.43 0.00 89 997.0
20210124072703 28 128 1.0 2.0 0.00 0.43 0.00 89 997.0
20210124072602 28 128 1.0 2.0 0.00 0.43 0.00 89 997.0
20210124072501 28 127 1.0 2.0 0.00 0.43 0.00 89 997.0
20210124072407 28 126 1.0 2.0 0.00 0.43 0.00 89 997.0
20210124072306 28 128 1.0 2.0 0.00 0.43 0.00 89 996.9
20210124072202 28 128 1.0 2.0 0.00 0.43 0.00 89 997.0
20210124072101 28 129 1.0 2.0 0.00 0.43 0.00 89 996.9
20210124072000 28 127 1.0 2.0 0.00 0.43 0.00 89 996.9
20210124071900 28 127 1.0 2.0 0.00 0.43 0.00 89 996.9
20210124071802 28 127 1.0 2.0 0.00 0.43 0.00 89 996.9
20210124071700 28 127 1.0 2.0 0.00 0.43 0.00 89 996.9
20210124071600 28 127 1.0 2.0 0.00 0.43 0.00 89 996.8
20210124071517 28 127 1.0 3.0 0.00 0.43 0.00 89 996.8
20210124071401 28 127 1.0 3.0 0.00 0.43 0.00 89 996.9
20210124071309 28 126 1.0 3.0 0.00 0.43 0.00 89 996.8
20210124071204 28 126 1.0 3.0 0.00 0.43 0.00 89 996.7
20210124071101 28 126 1.0 3.0 0.00 0.43 0.00 89 996.7
20210124071018 28 128 1.0 3.0 0.00 0.43 0.00 89 996.7
20210124070902 28 125 1.0 3.0 0.00 0.43 0.00 89 996.8
20210124070808 28 126 1.0 3.0 0.00 0.43 0.00 89 996.8
20210124070703 28 125 0.0 3.0 0.00 0.43 0.00 89 996.7
20210124070602 28 123 0.0 3.0 0.00 0.43 0.00 89 996.7
20210124070519 28 123 0.0 2.0 0.00 0.43 0.00 89 996.8
20210124070401 28 120 0.0 2.0 0.00 0.43 0.00 89 996.8
20210124070301 28 120 0.0 2.0 0.00 0.43 0.00 89 996.7
20210124070201 28 121 0.0 2.0 0.00 0.43 0.00 89 996.8
20210124070103 28 120 0.0 2.0 0.00 0.43 0.00 89 996.7
20210124070000 28 118 1.0 2.0 0.00 0.43 0.00 89 996.7
20210124065901 28 122 1.0 2.0 0.00 0.43 0.00 89 996.9
20210124065800 28 122 1.0 2.0 0.00 0.43 0.00 89 996.7
20210124065701 28 121 1.0 2.0 0.00 0.43 0.00 89 996.7
20210124065601 28 121 1.0 2.0 0.00 0.43 0.00 89 996.7
20210124065510 28 121 1.0 2.0 0.00 0.43 0.00 89 996.7
20210124065400 28 122 1.0 2.0 0.00 0.43 0.00 89 996.6
20210124065259 28 121 1.0 2.0 0.00 0.43 0.00 89 996.7
20210124065204 28 121 1.0 2.0 0.00 0.43 0.00 89 996.7
20210124065101 28 122 1.0 2.0 0.00 0.43 0.00 89 996.6
20210124065000 28 125 1.0 2.0 0.00 0.43 0.00 89 996.6
20210124064901 28 124 1.0 2.0 0.00 0.43 0.00 89 996.6
20210124064800 28 124 1.0 2.0 0.00 0.43 0.00 89 996.6
20210124064703 28 125 1.0 2.0 0.00 0.43 0.00 89 996.6
20210124064601 28 126 1.0 2.0 0.00 0.43 0.00 89 996.6
20210124064459 28 126 1.0 2.0 0.00 0.43 0.00 89 996.5
20210124064400 28 128 1.0 2.0 0.00 0.43 0.00 89 996.6
20210124064301 28 129 1.0 3.0 0.00 0.43 0.00 89 996.6
20210124064200 28 129 1.0 4.0 0.00 0.43 0.00 89 996.6
20210124064059 28 127 1.0 4.0 0.00 0.43 0.00 89 996.5
20210124064000 28 126 1.0 4.0 0.00 0.43 0.00 89 996.5
20210124063902 28 123 1.0 4.0 0.00 0.43 0.00 89 996.5
20210124063800 28 122 2.0 4.0 0.00 0.43 0.00 89 996.5
20210124063659 28 120 2.0 4.0 0.00 0.43 0.00 89 996.5
20210124063605 28 119 2.0 4.0 0.00 0.43 0.00 89 996.4
20210124063500 28 118 2.0 4.0 0.00 0.43 0.00 89 996.5
20210124063400 28 117 1.0 4.0 0.00 0.43 0.00 89 996.4
20210124063300 28 115 1.0 4.0 0.00 0.43 0.00 89 996.5
20210124063200 28 113 1.0 2.0 0.00 0.43 0.00 89 996.4
20210124063100 28 113 1.0 2.0 0.00 0.43 0.00 89 996.4
20210124063000 28 112 1.0 2.0 0.00 0.43 0.00 89 996.4
20210124062904 28 112 1.0 2.0 0.00 0.43 0.00 89 996.4
20210124062801 28 112 1.0 2.0 0.00 0.43 0.00 89 996.4
20210124062702 28 112 1.0 2.0 0.00 0.43 0.00 89 996.5
20210124062602 28 112 1.0 3.0 0.00 0.43 0.00 89 996.4
20210124062501 28 112 1.0 3.0 0.00 0.43 0.00 89 996.4
20210124062401 28 112 2.0 3.0 0.00 0.43 0.00 89 996.4
20210124062300 28 112 2.0 3.0 0.00 0.43 0.00 89 996.4
20210124062200 28 112 2.0 3.0 0.00 0.43 0.00 89 996.4
20210124062101 28 112 2.0 3.0 0.00 0.43 0.00 89 996.4
20210124062010 28 112 2.0 3.0 0.00 0.43 0.00 89 996.4
20210124061901 28 112 2.0 3.0 0.00 0.43 0.00 89 996.4
20210124061802 28 112 1.0 3.0 0.00 0.43 0.00 89 996.3
20210124061701 28 112 1.0 3.0 0.00 0.43 0.00 89 996.3
20210124061602 28 112 1.0 3.0 0.00 0.43 0.00 89 996.3
20210124061500 28 113 1.0 3.0 0.00 0.43 0.00 89 996.3
20210124061400 28 113 1.0 3.0 0.00 0.43 0.00 89 996.3
20210124061300 28 115 0.0 2.0 0.00 0.43 0.00 89 996.3
20210124061203 28 118 0.0 2.0 0.00 0.43 0.00 89 996.3
20210124061104 28 112 0.0 2.0 0.00 0.43 0.00 89 996.2
20210124061021 28 0 0.0 0.0 0.00 0.43 0.00 89 996.3
20210124060913 28 0 0.0 0.0 0.00 0.43 0.00 89 996.3
20210124060800 28 0 0.0 0.0 0.00 0.43 0.00 89 996.3
20210124060701 28 0 0.0 0.0 0.00 0.43 0.00 89 996.2
20210124060603 28 0 0.0 0.0 0.00 0.43 0.00 89 996.2
20210124060501 28 0 0.0 0.0 0.00 0.43 0.00 89 996.1
20210124060402 28 0 0.0 0.0 0.00 0.43 0.00 89 996.2
20210124060302 28 0 0.0 0.0 0.00 0.43 0.00 89 996.1
20210124060215 28 0 0.0 0.0 0.00 0.43 0.00 89 996.1
20210124060128 28 0 0.0 0.0 0.00 0.43 0.00 89 996.1
20210124060001 28 0 0.0 0.0 0.00 0.43 0.00 89 996.1
20210124055903 28 0 0.0 0.0 0.00 0.43 0.00 89 996.1
20210124055800 28 0 0.0 0.0 0.00 0.43 0.00 89 996.0
20210124055700 28 0 0.0 0.0 0.00 0.43 0.00 89 996.1
20210124055600 28 0 0.0 0.0 0.00 0.43 0.00 89 996.1
20210124055500 28 0 0.0 0.0 0.00 0.43 0.00 89 996.0
20210124055400 28 0 0.0 0.0 0.00 0.43 0.00 89 996.0
20210124055301 28 0 0.0 0.0 0.00 0.43 0.00 89 996.0
20210124055205 28 0 0.0 0.0 0.00 0.43 0.00 89 996.0
20210124055059 28 0 0.0 0.0 0.00 0.43 0.00 89 995.9
20210124055000 28 0 0.0 0.0 0.00 0.43 0.00 89 996.0
20210124054902 28 0 0.0 0.0 0.00 0.43 0.00 89 995.9
20210124054802 28 0 0.0 0.0 0.00 0.43 0.00 89 996.0
20210124054705 28 0 0.0 0.0 0.00 0.43 0.00 89 995.9
20210124054604 28 0 0.0 0.0 0.00 0.43 0.00 89 995.9
20210124054501 28 0 0.0 0.0 0.00 0.43 0.00 89 995.9
20210124054401 28 0 0.0 0.0 0.00 0.43 0.00 89 995.9
20210124054300 28 0 0.0 0.0 0.00 0.43 0.00 89 995.9
20210124054202 28 0 0.0 0.0 0.00 0.43 0.00 89 995.9
20210124054100 28 0 0.0 0.0 0.00 0.43 0.00 89 995.9
20210124054001 28 0 0.0 0.0 0.00 0.43 0.00 89 995.8
20210124053900 28 0 0.0 0.0 0.00 0.43 0.00 89 995.9
20210124053759 28 0 0.0 0.0 0.00 0.43 0.00 89 995.9
20210124053702 28 0 0.0 0.0 0.00 0.43 0.00 89 995.9
20210124053600 28 0 0.0 0.0 0.00 0.43 0.00 89 995.8
20210124053510 28 0 0.0 0.0 0.00 0.43 0.00 89 995.8
20210124053400 28 0 0.0 0.0 0.00 0.43 0.00 89 995.9
20210124053301 28 0 0.0 0.0 0.00 0.43 0.00 89 995.9
20210124053202 28 0 0.0 0.0 0.00 0.43 0.00 89 995.8
20210124053101 28 0 0.0 0.0 0.00 0.43 0.00 89 995.9
20210124053005 28 0 0.0 0.0 0.00 0.43 0.00 89 995.8
20210124052900 28 0 0.0 0.0 0.00 0.43 0.00 89 995.9
20210124052800 28 0 0.0 0.0 0.00 0.43 0.00 89 995.8
20210124052700 28 0 0.0 0.0 0.00 0.43 0.00 89 995.9
20210124052601 28 0 0.0 0.0 0.00 0.43 0.00 89 995.9
20210124052459 28 0 0.0 0.0 0.00 0.43 0.00 89 995.8
20210124052400 28 0 0.0 0.0 0.00 0.43 0.00 89 995.9
20210124052306 28 0 0.0 0.0 0.00 0.43 0.00 89 995.8
20210124052209 28 0 0.0 0.0 0.00 0.43 0.00 89 995.8
20210124052100 28 0 0.0 0.0 0.00 0.43 0.00 89 995.8
20210124052000 28 0 0.0 0.0 0.00 0.43 0.00 89 995.8
20210124051901 28 0 0.0 0.0 0.00 0.43 0.00 89 995.8
20210124051805 28 0 0.0 0.0 0.00 0.43 0.00 89 995.9
20210124051706 28 0 0.0 0.0 0.00 0.43 0.00 89 995.8
20210124051601 28 0 0.0 0.0 0.00 0.43 0.00 89 995.8
20210124051500 28 0 0.0 0.0 0.00 0.43 0.00 89 995.8
20210124051359 28 0 0.0 0.0 0.00 0.43 0.00 89 995.8
20210124051301 28 0 0.0 0.0 0.00 0.43 0.00 89 995.8
20210124051202 28 0 0.0 0.0 0.00 0.43 0.00 89 995.7
20210124051101 28 0 0.0 0.0 0.00 0.43 0.00 89 995.7
20210124051001 28 0 0.0 0.0 0.00 0.43 0.00 89 995.7
20210124050900 28 0 0.0 0.0 0.00 0.43 0.00 89 995.6
20210124050800 28 0 0.0 0.0 0.00 0.43 0.00 89 995.6
20210124050659 28 0 0.0 0.0 0.00 0.43 0.00 89 995.6
20210124050604 28 0 0.0 0.0 0.00 0.43 0.00 89 995.6
20210124050500 28 0 0.0 0.0 0.00 0.43 0.00 89 995.7
20210124050402 28 0 0.0 0.0 0.00 0.43 0.00 89 995.6
20210124050306 28 0 0.0 0.0 0.00 0.43 0.00 89 995.6
20210124050205 28 0 0.0 0.0 0.00 0.43 0.00 89 995.6
20210124050102 29 0 0.0 0.0 0.00 0.43 0.00 89 995.5
20210124050000 29 0 0.0 0.0 0.00 0.43 0.00 89 995.5
20210124045900 29 0 0.0 0.0 0.00 0.43 0.00 89 995.6
20210124045759 29 0 0.0 0.0 0.00 0.43 0.00 89 995.6
20210124045659 29 0 0.0 0.0 0.00 0.43 0.00 89 995.6
20210124045606 29 0 0.0 0.0 0.00 0.43 0.00 89 995.5
20210124045501 29 0 0.0 0.0 0.00 0.43 0.00 89 995.6
20210124045400 29 0 0.0 0.0 0.00 0.43 0.00 89 995.6
20210124045259 29 0 0.0 0.0 0.00 0.43 0.00 89 995.6
20210124045203 29 0 0.0 0.0 0.00 0.43 0.00 89 995.6
20210124045100 29 0 0.0 0.0 0.00 0.43 0.00 89 995.7
20210124045000 29 0 0.0 0.0 0.00 0.43 0.00 89 995.6
20210124044900 29 0 0.0 0.0 0.00 0.43 0.00 89 995.6
20210124044805 29 0 0.0 0.0 0.00 0.43 0.00 89 995.5
20210124044701 29 0 0.0 0.0 0.00 0.43 0.00 89 995.6
20210124044600 29 0 0.0 0.0 0.00 0.43 0.00 89 995.6
20210124044510 29 0 0.0 0.0 0.00 0.43 0.00 89 995.5
20210124044400 29 0 0.0 0.0 0.00 0.43 0.00 89 995.6
20210124044300 29 0 0.0 0.0 0.00 0.43 0.00 89 995.6
20210124044200 29 0 0.0 0.0 0.00 0.43 0.00 89 995.5
20210124044100 29 0 0.0 0.0 0.00 0.43 0.00 89 995.6
20210124043959 29 0 0.0 0.0 0.00 0.43 0.00 89 995.6
20210124043902 29 0 0.0 0.0 0.00 0.43 0.00 89 995.6
20210124043800 29 0 0.0 0.0 0.00 0.43 0.00 89 995.7
20210124043702 29 0 0.0 0.0 0.00 0.43 0.00 89 995.6
20210124043600 29 0 0.0 0.0 0.00 0.43 0.00 89 995.6
20210124043508 29 0 0.0 0.0 0.00 0.43 0.00 89 995.6
20210124043401 29 0 0.0 0.0 0.00 0.43 0.00 89 995.6
20210124043300 29 0 0.0 0.0 0.00 0.43 0.00 89 995.6
20210124043200 29 0 0.0 0.0 0.00 0.43 0.00 89 995.6
20210124043101 29 0 0.0 0.0 0.00 0.43 0.00 89 995.6
20210124043010 29 0 0.0 0.0 0.00 0.43 0.00 89 995.6
20210124042901 29 0 0.0 0.0 0.00 0.43 0.00 89 995.6
20210124042801 29 0 0.0 0.0 0.00 0.43 0.00 89 995.6
20210124042701 29 0 0.0 0.0 0.00 0.43 0.00 89 995.6
20210124042600 29 0 0.0 0.0 0.00 0.43 0.00 89 995.6
20210124042515 29 0 0.0 0.0 0.00 0.43 0.00 89 995.6
20210124042400 29 0 0.0 0.0 0.00 0.43 0.00 89 995.6
20210124042301 29 0 0.0 0.0 0.00 0.43 0.00 89 995.6
20210124042203 29 0 0.0 0.0 0.00 0.43 0.00 89 995.6
20210124042100 29 0 0.0 0.0 0.00 0.43 0.00 89 995.6
20210124042000 29 0 0.0 0.0 0.00 0.43 0.00 89 995.6
20210124041859 29 0 0.0 0.0 0.00 0.43 0.00 89 995.6
20210124041800 29 0 0.0 0.0 0.00 0.43 0.00 89 995.6
20210124041700 29 0 0.0 0.0 0.00 0.43 0.00 89 995.6
20210124041601 29 0 0.0 0.0 0.00 0.43 0.00 89 995.6
20210124041501 29 0 0.0 0.0 0.00 0.43 0.00 89 995.6
20210124041400 29 0 0.0 0.0 0.00 0.43 0.00 89 995.6
20210124041302 29 111 0.0 1.0 0.00 0.43 0.00 89 995.6
20210124041200 29 111 0.0 2.0 0.00 0.43 0.00 89 995.6
20210124041101 29 111 0.0 2.0 0.00 0.43 0.00 89 995.5
20210124041001 29 111 0.0 2.0 0.00 0.43 0.00 89 995.5
20210124040901 29 110 0.0 2.0 0.00 0.43 0.00 89 995.5
20210124040800 29 110 0.0 2.0 0.00 0.43 0.00 89 995.5
20210124040702 29 110 0.0 2.0 0.00 0.43 0.00 89 995.5
20210124040603 29 110 0.0 2.0 0.00 0.43 0.00 89 995.5
20210124040500 29 110 0.0 2.0 0.00 0.43 0.00 89 995.5
20210124040400 29 110 0.0 2.0 0.00 0.43 0.00 89 995.5
20210124040259 29 109 0.0 2.0 0.00 0.43 0.00 89 995.4
20210124040202 29 108 0.0 1.0 0.00 0.43 0.00 89 995.5
20210124040100 29 108 0.0 1.0 0.00 0.43 0.00 89 995.4
20210124040001 29 108 0.0 1.0 0.00 0.43 0.00 89 995.4
20210124035901 29 110 0.0 1.0 0.00 0.43 0.00 89 995.4
20210124035800 29 112 0.0 1.0 0.00 0.43 0.00 89 995.4
20210124035702 29 0 0.0 0.0 0.00 0.43 0.00 89 995.5
20210124035600 29 0 0.0 0.0 0.00 0.43 0.00 89 995.4
20210124035501 29 0 0.0 0.0 0.00 0.43 0.00 89 995.4
20210124035359 29 0 0.0 0.0 0.00 0.43 0.00 89 995.4
20210124035306 29 0 0.0 0.0 0.00 0.43 0.00 89 995.3
20210124035206 29 0 0.0 0.0 0.00 0.43 0.00 89 995.4
20210124035100 29 0 0.0 0.0 0.00 0.43 0.00 89 995.3
20210124034959 29 0 0.0 0.0 0.00 0.43 0.00 89 995.4
20210124034900 29 0 0.0 0.0 0.00 0.43 0.00 89 995.4
20210124034802 29 0 0.0 0.0 0.00 0.43 0.00 89 995.4
20210124034659 29 0 0.0 0.0 0.00 0.43 0.00 89 995.3
20210124034602 29 0 0.0 0.0 0.00 0.43 0.00 89 995.4
20210124034500 29 0 0.0 0.0 0.00 0.43 0.00 89 995.3
20210124034401 29 0 0.0 0.0 0.00 0.43 0.00 89 995.3
20210124034306 29 0 0.0 0.0 0.00 0.43 0.00 89 995.3
20210124034201 29 0 0.0 0.0 0.00 0.43 0.00 89 995.3
20210124034059 29 0 0.0 0.0 0.00 0.43 0.00 89 995.3
20210124034001 29 0 0.0 0.0 0.00 0.43 0.00 89 995.3
20210124033901 29 0 0.0 0.0 0.00 0.43 0.00 89 995.3
20210124033800 29 0 0.0 0.0 0.00 0.43 0.00 89 995.3
20210124033659 29 0 0.0 0.0 0.00 0.43 0.00 89 995.3
20210124033603 29 0 0.0 0.0 0.00 0.43 0.00 89 995.3
20210124033500 29 111 0.0 1.0 0.00 0.43 0.00 89 995.2
20210124033401 29 111 0.0 1.0 0.00 0.43 0.00 89 995.2
20210124033301 29 112 0.0 1.0 0.00 0.43 0.00 89 995.3
20210124033159 29 112 0.0 2.0 0.00 0.43 0.00 89 995.2
20210124033102 29 112 0.0 2.0 0.00 0.43 0.00 89 995.2
20210124033000 29 112 0.0 2.0 0.00 0.43 0.00 89 995.2
20210124032902 29 112 1.0 2.0 0.00 0.43 0.00 89 995.2
20210124032801 29 112 1.0 2.0 0.00 0.43 0.00 89 995.2
20210124032703 29 112 1.0 2.0 0.00 0.43 0.00 89 995.1
20210124032600 29 112 1.0 2.0 0.00 0.43 0.00 89 995.2
20210124032500 29 112 1.0 2.0 0.00 0.43 0.00 89 995.1
20210124032401 29 112 0.0 2.0 0.00 0.43 0.00 89 995.1
20210124032259 29 112 0.0 2.0 0.00 0.43 0.00 89 995.1
20210124032203 29 111 0.0 2.0 0.00 0.43 0.00 89 995.0
20210124032100 29 112 0.0 1.0 0.00 0.43 0.00 89 995.0
20210124032002 29 112 0.0 1.0 0.00 0.43 0.00 89 995.1
20210124031901 29 0 0.0 0.0 0.00 0.43 0.00 89 995.0
20210124031804 29 0 0.0 0.0 0.00 0.43 0.00 89 995.0
20210124031704 29 0 0.0 0.0 0.00 0.43 0.00 89 995.0
20210124031600 29 0 0.0 0.0 0.00 0.43 0.00 89 995.0
20210124031501 29 0 0.0 0.0 0.00 0.43 0.00 89 995.0
20210124031401 29 0 0.0 0.0 0.00 0.43 0.00 89 995.0
20210124031303 29 0 0.0 0.0 0.00 0.43 0.00 89 995.0
20210124031200 29 0 0.0 0.0 0.00 0.43 0.00 89 994.9
20210124031059 29 0 0.0 0.0 0.00 0.43 0.00 89 994.9
20210124031022 29 0 0.0 0.0 0.00 0.43 0.00 89 994.9
20210124030900 29 0 0.0 0.0 0.00 0.43 0.00 89 994.9
20210124030759 29 0 0.0 0.0 0.00 0.43 0.00 89 994.9
20210124030700 29 0 0.0 0.0 0.00 0.43 0.00 89 994.8
20210124030600 29 0 0.0 0.0 0.00 0.43 0.00 89 994.8
20210124030513 29 0 0.0 0.0 0.00 0.43 0.00 89 994.7
20210124030359 30 0 0.0 0.0 0.00 0.43 0.00 89 994.7
20210124030305 30 0 0.0 0.0 0.00 0.43 0.00 89 994.6
20210124030201 30 0 0.0 0.0 0.00 0.43 0.00 89 994.7
20210124030103 30 0 0.0 0.0 0.00 0.43 0.00 89 994.7
20210124030001 30 0 0.0 0.0 0.00 0.43 0.00 89 994.7
20210124025902 30 0 0.0 0.0 0.00 0.43 0.00 89 994.8
20210124025801 30 0 0.0 0.0 0.00 0.43 0.00 89 994.7
20210124025700 30 0 0.0 0.0 0.00 0.43 0.00 89 994.7
20210124025600 30 0 0.0 0.0 0.00 0.43 0.00 89 994.7
20210124025500 30 0 0.0 0.0 0.00 0.43 0.00 89 994.7
20210124025401 30 0 0.0 0.0 0.00 0.43 0.00 89 994.7
20210124025259 30 0 0.0 0.0 0.00 0.43 0.00 89 994.7
20210124025202 30 0 0.0 0.0 0.00 0.43 0.00 89 994.8
20210124025101 30 0 0.0 0.0 0.00 0.43 0.00 89 994.8
20210124025001 30 111 0.0 1.0 0.00 0.43 0.00 89 994.7
20210124024907 30 111 0.0 1.0 0.00 0.43 0.00 89 994.7
20210124024800 30 111 0.0 1.0 0.00 0.43 0.00 89 994.7
20210124024700 30 111 0.0 1.0 0.00 0.43 0.00 89 994.6
20210124024600 30 111 0.0 1.0 0.00 0.43 0.00 89 994.6
20210124024459 30 111 0.0 1.0 0.00 0.43 0.00 89 994.7
20210124024400 30 111 0.0 1.0 0.00 0.43 0.00 89 994.7
20210124024300 30 111 0.0 1.0 0.00 0.43 0.00 89 994.6
20210124024200 30 111 0.0 1.0 0.00 0.43 0.00 89 994.6
20210124024101 30 111 0.0 1.0 0.00 0.43 0.00 89 994.6
20210124024000 30 0 0.0 0.0 0.00 0.43 0.00 89 994.6
20210124023901 30 0 0.0 0.0 0.00 0.43 0.00 89 994.6
20210124023800 30 0 0.0 0.0 0.00 0.43 0.00 89 994.6
20210124023700 30 0 0.0 0.0 0.00 0.43 0.00 89 994.6
20210124023600 30 0 0.0 0.0 0.00 0.43 0.00 89 994.5
20210124023500 30 0 0.0 0.0 0.00 0.43 0.00 89 994.5
20210124023359 30 0 0.0 0.0 0.00 0.43 0.00 89 994.5
20210124023301 30 0 0.0 0.0 0.00 0.43 0.00 89 994.6
20210124023200 30 0 0.0 0.0 0.00 0.43 0.00 89 994.5
20210124023101 30 0 0.0 0.0 0.00 0.43 0.00 89 994.5
20210124023000 30 0 0.0 0.0 0.00 0.43 0.00 89 994.5
20210124022901 30 0 0.0 0.0 0.00 0.43 0.00 89 994.5
20210124022759 30 305 0.0 1.0 0.00 0.43 0.00 89 994.5
20210124022701 30 294 0.0 1.0 0.00 0.43 0.00 89 994.5
20210124022606 30 294 0.0 1.0 0.00 0.43 0.00 89 994.5
20210124022500 30 294 0.0 1.0 0.00 0.43 0.00 89 994.5
20210124022359 30 294 0.0 1.0 0.00 0.43 0.00 89 994.5
20210124022301 30 294 0.0 1.0 0.00 0.43 0.00 89 994.5
20210124022202 30 294 0.0 1.0 0.00 0.43 0.00 89 994.5
20210124022102 30 294 0.0 1.0 0.00 0.43 0.00 89 994.5
20210124022006 30 294 0.0 1.0 0.00 0.43 0.00 89 994.5
20210124021904 30 294 0.0 1.0 0.00 0.43 0.00 89 994.4
20210124021800 30 285 0.0 1.0 0.00 0.43 0.00 89 994.4
20210124021704 30 0 0.0 0.0 0.00 0.43 0.00 89 994.5
20210124021601 30 0 0.0 0.0 0.00 0.43 0.00 89 994.4
20210124021500 30 0 0.0 0.0 0.00 0.43 0.00 89 994.4
20210124021401 30 0 0.0 0.0 0.00 0.43 0.00 89 994.4
20210124021301 30 0 0.0 0.0 0.00 0.43 0.00 89 994.4
20210124021200 31 0 0.0 0.0 0.00 0.43 0.00 89 994.4
20210124021108 31 0 0.0 0.0 0.00 0.43 0.00 89 994.3
20210124021000 31 0 0.0 0.0 0.00 0.43 0.00 89 994.3
20210124020904 31 0 0.0 0.0 0.00 0.43 0.00 89 994.3
20210124020802 31 0 0.0 0.0 0.00 0.43 0.00 89 994.4
20210124020700 31 0 0.0 0.0 0.00 0.43 0.00 89 994.3
20210124020600 31 0 0.0 0.0 0.00 0.43 0.00 89 994.4
20210124020500 31 0 0.0 0.0 0.00 0.43 0.00 89 994.4
20210124020402 31 0 0.0 0.0 0.00 0.43 0.00 89 994.5
20210124020300 31 0 0.0 0.0 0.00 0.43 0.00 89 994.4
20210124020201 31 0 0.0 0.0 0.00 0.43 0.00 89 994.4
20210124020059 31 0 0.0 0.0 0.00 0.43 0.00 89 994.4
20210124015959 31 0 0.0 0.0 0.00 0.43 0.00 89 994.4
20210124015900 31 0 0.0 0.0 0.00 0.43 0.00 89 994.4
20210124015804 31 0 0.0 0.0 0.00 0.43 0.00 89 994.4
20210124015700 31 0 0.0 0.0 0.00 0.43 0.00 89 994.4
20210124015559 31 0 0.0 0.0 0.00 0.43 0.00 89 994.3
20210124015510 31 0 0.0 0.0 0.00 0.43 0.00 89 994.3
20210124015400 31 0 0.0 0.0 0.00 0.43 0.00 89 994.3
20210124015300 31 0 0.0 0.0 0.00 0.43 0.00 89 994.3
20210124015200 31 0 0.0 0.0 0.00 0.43 0.00 89 994.3
20210124015100 31 0 0.0 0.0 0.00 0.43 0.00 89 994.3
20210124015010 31 0 0.0 0.0 0.00 0.43 0.00 89 994.2
20210124014903 31 0 0.0 0.0 0.00 0.43 0.00 89 994.2
20210124014803 31 0 0.0 0.0 0.00 0.43 0.00 89 994.2
20210124014700 31 0 0.0 0.0 0.00 0.43 0.00 89 994.2
20210124014600 31 0 0.0 0.0 0.00 0.43 0.00 89 994.2
20210124014511 31 0 0.0 0.0 0.00 0.43 0.00 89 994.1
20210124014400 31 0 0.0 0.0 0.00 0.43 0.00 88 994.1
20210124014259 31 0 0.0 0.0 0.00 0.43 0.00 89 994.2
20210124014202 31 0 0.0 0.0 0.00 0.43 0.00 88 994.1
20210124014103 31 0 0.0 0.0 0.00 0.43 0.00 88 994.1
20210124014007 31 0 0.0 0.0 0.00 0.43 0.00 88 994.1
20210124013903 31 0 0.0 0.0 0.00 0.43 0.00 88 994.1
20210124013800 31 0 0.0 0.0 0.00 0.43 0.00 88 994.1
20210124013700 31 0 0.0 0.0 0.00 0.43 0.00 88 994.1
20210124013600 31 0 0.0 0.0 0.00 0.43 0.00 88 994.1
20210124013509 31 0 0.0 0.0 0.00 0.43 0.00 88 994.1
20210124013402 31 0 0.0 0.0 0.00 0.43 0.00 88 994.1
20210124013301 31 0 0.0 0.0 0.00 0.43 0.00 88 994.1
20210124013200 31 0 0.0 0.0 0.00 0.43 0.00 88 994.1
20210124013059 31 0 0.0 0.0 0.00 0.43 0.00 88 994.1
20210124013012 31 0 0.0 0.0 0.00 0.43 0.00 88 994.1
20210124012900 31 0 0.0 0.0 0.00 0.43 0.00 88 994.1
20210124012801 31 0 0.0 0.0 0.00 0.43 0.00 88 994.1
20210124012700 31 0 0.0 0.0 0.00 0.43 0.00 88 994.1
20210124012600 31 0 0.0 0.0 0.00 0.43 0.00 88 994.0
20210124012501 31 0 0.0 0.0 0.00 0.43 0.00 88 994.0
20210124012402 31 0 0.0 0.0 0.00 0.43 0.00 88 994.0
20210124012300 31 0 0.0 0.0 0.00 0.43 0.00 88 994.1
20210124012202 31 0 0.0 0.0 0.00 0.43 0.00 88 994.0
20210124012103 31 0 0.0 0.0 0.00 0.43 0.00 88 993.9
20210124011959 31 0 0.0 0.0 0.00 0.43 0.00 88 994.0
20210124011901 31 0 0.0 0.0 0.00 0.43 0.00 88 994.0
20210124011804 31 0 0.0 0.0 0.00 0.43 0.00 88 994.0
20210124011705 31 0 0.0 0.0 0.00 0.43 0.00 88 994.0
20210124011559 31 0 0.0 0.0 0.00 0.43 0.00 88 993.9
20210124011500 31 0 0.0 0.0 0.00 0.43 0.00 88 994.0
20210124011400 31 0 0.0 0.0 0.00 0.43 0.00 88 994.0
20210124011306 31 0 0.0 0.0 0.00 0.43 0.00 88 994.0
20210124011201 31 0 0.0 0.0 0.00 0.43 0.00 88 994.0
20210124011101 31 0 0.0 0.0 0.00 0.43 0.00 88 994.0
20210124011025 31 0 0.0 0.0 0.00 0.43 0.00 88 994.0
20210124010902 31 0 0.0 0.0 0.00 0.43 0.00 88 994.0
20210124010803 31 0 0.0 0.0 0.00 0.43 0.00 88 993.9
20210124010701 31 0 0.0 0.0 0.00 0.43 0.00 88 994.0
20210124010600 31 0 0.0 0.0 0.00 0.43 0.00 88 993.9
20210124010507 31 0 0.0 0.0 0.00 0.43 0.00 88 993.9
20210124010359 31 0 0.0 0.0 0.00 0.43 0.00 88 993.8
20210124010010 31 0 0.0 0.0 0.00 0.43 0.00 88 993.9
20210124005901 31 0 0.0 0.0 0.00 0.43 0.00 88 993.9
20210124005804 31 0 0.0 0.0 0.00 0.43 0.00 88 993.9
20210124005706 31 0 0.0 0.0 0.00 0.43 0.00 88 993.8
20210124005559 31 0 0.0 0.0 0.00 0.43 0.00 88 993.8
20210124005459 31 0 0.0 0.0 0.00 0.43 0.00 88 993.8
20210124005402 31 0 0.0 0.0 0.00 0.43 0.00 88 993.8
20210124005300 31 0 0.0 0.0 0.00 0.43 0.00 88 993.8
20210124005200 32 0 0.0 0.0 0.00 0.43 0.00 88 993.8
20210124005104 32 0 0.0 0.0 0.00 0.43 0.00 88 993.8
20210124005000 32 0 0.0 0.0 0.00 0.43 0.00 88 993.8
20210124004900 32 0 0.0 0.0 0.00 0.43 0.00 88 993.8
20210124004808 32 0 0.0 0.0 0.00 0.43 0.00 88 993.7
20210124004701 32 90 0.0 2.0 0.00 0.43 0.00 88 993.8
20210124004601 32 90 0.0 2.0 0.00 0.43 0.00 88 993.8
20210124004500 32 90 0.0 2.0 0.00 0.43 0.00 88 993.8
20210124004359 32 90 0.0 2.0 0.00 0.43 0.00 88 993.8
20210124004300 32 90 0.0 2.0 0.00 0.43 0.00 88 993.8
20210124004200 32 90 0.0 2.0 0.00 0.43 0.00 88 993.9
20210124004101 32 90 0.0 2.0 0.00 0.43 0.00 88 993.9
20210124004006 32 90 0.0 2.0 0.00 0.43 0.00 88 993.8
20210124003904 32 90 0.0 2.0 0.00 0.43 0.00 88 993.8
20210124003759 32 91 0.0 2.0 0.00 0.43 0.00 88 993.8
20210124003705 32 123 0.0 2.0 0.00 0.43 0.00 88 993.8
20210124003600 32 123 0.0 2.0 0.00 0.43 0.00 88 993.8
20210124003504 32 123 0.0 2.0 0.00 0.43 0.00 88 993.9
20210124003400 32 118 0.0 2.0 0.00 0.43 0.00 88 993.8
20210124003259 32 345 0.0 2.0 0.00 0.43 0.00 88 993.8
20210124003200 32 345 0.0 2.0 0.00 0.43 0.00 88 993.7
20210124003101 32 345 0.0 2.0 0.00 0.43 0.00 88 993.7
20210124003000 32 345 0.0 2.0 0.00 0.43 0.00 88 993.7
20210124002900 32 345 0.0 2.0 0.00 0.43 0.00 88 993.7
20210124002801 32 334 0.0 2.0 0.00 0.43 0.00 88 993.7
20210124002659 32 309 0.0 1.0 0.00 0.43 0.00 88 993.7
20210124002559 32 309 0.0 1.0 0.00 0.43 0.00 88 993.7
20210124002501 32 309 0.0 1.0 0.00 0.43 0.00 88 993.7
20210124002400 32 337 0.0 1.0 0.00 0.43 0.00 88 993.7
20210124002300 32 0 0.0 0.0 0.00 0.43 0.00 88 993.7
20210124002159 32 0 0.0 0.0 0.00 0.43 0.00 88 993.6
20210124002059 32 0 0.0 0.0 0.00 0.43 0.00 88 993.7
20210124002011 32 0 0.0 0.0 0.00 0.43 0.00 88 993.7
20210124001902 32 0 0.0 0.0 0.00 0.43 0.00 88 993.6
20210124001800 32 0 0.0 0.0 0.00 0.43 0.00 88 993.6
20210124001700 32 292 0.0 4.0 0.00 0.43 0.00 88 993.6
20210124001602 32 314 0.0 4.0 0.00 0.43 0.00 89 993.6
20210124001500 32 331 0.0 4.0 0.00 0.43 0.00 89 993.6
20210124001404 32 325 0.0 4.0 0.00 0.43 0.00 88 993.6
20210124001300 32 325 0.0 4.0 0.00 0.43 0.00 88 993.6
20210124001200 32 325 0.0 4.0 0.00 0.43 0.00 88 993.5
20210124001105 32 325 0.0 4.0 0.00 0.43 0.00 89 993.7
20210124001018 32 328 1.0 4.0 0.00 0.43 0.00 88 993.7
20210124000908 32 327 1.0 4.0 0.00 0.43 0.00 89 993.6
20210124000808 32 327 1.0 4.0 0.00 0.43 0.00 88 993.7
20210124000701 32 334 1.0 3.0 0.00 0.43 0.00 88 993.7
20210124000600 32 334 0.0 2.0 0.00 0.43 0.00 88 993.7
20210124000513 32 330 0.0 2.0 0.00 0.43 0.00 88 993.7
20210124000405 32 321 0.0 2.0 0.00 0.43 0.00 88 993.7
20210124000305 32 319 0.0 2.0 0.00 0.43 0.00 88 993.7
20210124000207 32 319 0.0 2.0 0.00 0.43 0.00 88 993.7
20210124000059 32 319 0.0 2.0 0.00 0.43 0.00 88 993.7
20210124000000 32 313 0.0 2.0 0.00 0.43 0.00 88 993.7
20210123235859 32 313 0.0 2.0 0.00 0.43 0.00 88 993.7
20210123235800 32 313 0.0 2.0 0.00 0.43 0.00 88 993.6
20210123235659 32 302 0.0 2.0 0.00 0.43 0.00 88 993.6
20210123235601 32 299 0.0 2.0 0.00 0.43 0.00 88 993.6
20210123235504 32 289 0.0 2.0 0.00 0.43 0.00 88 993.6
20210123235401 32 337 0.0 1.0 0.00 0.43 0.00 88 993.7
20210123235305 32 337 0.0 1.0 0.00 0.43 0.00 88 993.7
20210123235159 32 253 0.0 2.0 0.00 0.43 0.00 88 993.6
20210123235100 32 330 0.0 6.0 0.00 0.43 0.00 88 993.6
20210123235011 32 330 0.0 6.0 0.00 0.43 0.00 88 993.7
20210123234900 32 330 0.0 6.0 0.00 0.43 0.00 88 993.6
20210123234800 32 330 0.0 6.0 0.00 0.43 0.00 88 993.6
20210123234700 32 331 0.0 6.0 0.00 0.43 0.00 88 993.6
20210123234600 32 332 0.0 6.0 0.00 0.43 0.00 88 993.7
20210123234459 32 326 1.0 6.0 0.00 0.43 0.00 88 993.6
20210123234401 32 324 1.0 6.0 0.00 0.43 0.00 88 993.7
20210123234304 32 324 1.0 6.0 0.00 0.43 0.00 88 993.6
20210123234200 32 333 1.0 6.0 0.00 0.43 0.00 88 993.7
20210123234100 32 333 1.0 3.0 0.00 0.43 0.00 88 993.6
20210123234000 32 333 1.0 3.0 0.00 0.43 0.00 88 993.6
20210123233859 32 333 1.0 3.0 0.00 0.43 0.00 88 993.6
20210123233800 32 333 1.0 3.0 0.00 0.43 0.00 88 993.6
20210123233700 32 333 1.0 3.0 0.00 0.43 0.00 88 993.6
20210123233602 32 331 0.0 3.0 0.00 0.43 0.00 88 993.6
20210123233510 32 351 0.0 3.0 0.00 0.43 0.00 88 993.6
20210123233400 32 5 0.0 2.0 0.00 0.43 0.00 88 993.6
20210123233306 32 8 0.0 2.0 0.00 0.43 0.00 88 993.6
20210123233207 32 1 0.0 2.0 0.00 0.43 0.00 88 993.6
20210123233100 32 0 0.0 0.0 0.00 0.43 0.00 88 993.5
20210123233021 32 144 0.0 2.0 0.00 0.43 0.00 88 993.5
20210123232903 32 100 0.0 2.0 0.00 0.43 0.00 88 993.5
20210123232804 32 101 0.0 2.0 0.00 0.43 0.00 88 993.6
20210123232700 32 101 0.0 2.0 0.00 0.43 0.00 88 993.6
20210123232601 32 101 0.0 2.0 0.00 0.43 0.00 88 993.5
20210123232501 32 101 0.0 2.0 0.00 0.43 0.00 88 993.5
20210123232400 32 101 0.0 2.0 0.00 0.43 0.00 88 993.5
20210123232300 32 101 0.0 2.0 0.00 0.43 0.00 88 993.6
20210123232159 32 101 0.0 2.0 0.00 0.43 0.00 88 993.5
20210123232103 32 101 0.0 2.0 0.00 0.43 0.00 88 993.5
20210123232000 33 90 0.0 2.0 0.00 0.43 0.00 87 993.6
20210123231904 33 103 0.0 2.0 0.00 0.43 0.00 88 993.6
20210123231800 33 0 0.0 0.0 0.00 0.43 0.00 87 993.5
20210123231700 33 0 0.0 0.0 0.00 0.43 0.00 87 993.6
20210123231602 33 0 0.0 0.0 0.00 0.43 0.00 87 993.5
20210123231520 33 0 0.0 0.0 0.00 0.43 0.00 87 993.4
20210123231400 33 0 0.0 0.0 0.00 0.43 0.00 87 993.5
20210123231300 33 0 0.0 0.0 0.00 0.43 0.00 87 993.5
20210123231202 33 0 0.0 0.0 0.00 0.43 0.00 87 993.4
20210123231103 33 0 0.0 0.0 0.00 0.43 0.00 87 993.4
20210123231007 33 0 0.0 0.0 0.00 0.43 0.00 87 993.5
20210123230905 33 0 0.0 0.0 0.00 0.43 0.00 87 993.4
20210123230804 33 0 0.0 0.0 0.00 0.43 0.00 87 993.4
20210123230700 33 0 0.0 0.0 0.00 0.43 0.00 87 993.4
20210123230601 33 0 0.0 0.0 0.00 0.43 0.00 87 993.4
20210123230459 33 0 0.0 0.0 0.00 0.43 0.00 87 993.4
20210123230359 33 0 0.0 0.0 0.00 0.43 0.00 87 993.4
20210123230303 33 0 0.0 0.0 0.00 0.43 0.00 87 993.4
20210123230201 33 0 0.0 0.0 0.00 0.43 0.00 87 993.4
20210123230133 33 0 0.0 0.0 0.00 0.43 0.00 87 993.3
20210123230005 33 0 0.0 0.0 0.00 0.43 0.00 87 993.3
20210123225903 33 0 0.0 0.0 0.00 0.43 0.43 87 993.4
20210123225800 33 0 0.0 0.0 0.00 0.43 0.43 87 993.3
20210123225659 33 0 0.0 0.0 0.00 0.43 0.43 87 993.3
20210123225600 33 0 0.0 0.0 0.00 0.43 0.43 87 993.3
20210123225516 33 0 0.0 0.0 0.00 0.43 0.43 87 993.4
20210123225401 33 0 0.0 0.0 0.00 0.43 0.43 87 993.4
20210123225312 33 0 0.0 0.0 0.00 0.43 0.43 87 993.3
20210123225200 33 0 0.0 0.0 0.00 0.43 0.43 87 993.3
20210123225110 33 0 0.0 0.0 0.00 0.43 0.43 87 993.3
20210123225000 33 0 0.0 0.0 0.00 0.43 0.43 87 993.3
20210123224859 33 0 0.0 0.0 0.00 0.43 0.43 87 993.3
20210123224759 33 0 0.0 0.0 0.00 0.43 0.43 87 993.3
20210123224659 33 0 0.0 0.0 0.00 0.43 0.43 87 993.3
20210123224559 33 0 0.0 0.0 0.00 0.43 0.43 87 993.3
20210123224500 33 0 0.0 0.0 0.00 0.43 0.43 87 993.2
20210123224359 33 0 0.0 0.0 0.00 0.43 0.43 87 993.2
20210123224259 33 0 0.0 0.0 0.00 0.43 0.43 87 993.2
20210123224159 33 0 0.0 0.0 0.00 0.43 0.43 87 993.2
20210123224100 33 0 0.0 0.0 0.00 0.43 0.43 87 993.2
20210123224000 33 0 0.0 0.0 0.00 0.43 0.43 87 993.2
20210123223909 33 0 0.0 0.0 0.00 0.43 0.43 87 993.2
20210123223801 33 0 0.0 0.0 0.00 0.43 0.43 87 993.1
20210123223700 34 0 0.0 0.0 0.00 0.43 0.43 87 993.2
20210123223559 34 0 0.0 0.0 0.00 0.43 0.43 87 993.2
20210123223515 34 0 0.0 0.0 0.00 0.43 0.43 87 993.1
20210123223400 34 0 0.0 0.0 0.00 0.43 0.43 87 993.1
20210123223259 34 0 0.0 0.0 0.00 0.43 0.43 87 993.0
20210123223200 34 0 0.0 0.0 0.00 0.43 0.43 87 993.0
20210123223101 34 0 0.0 0.0 0.00 0.43 0.43 87 992.9
20210123223000 34 0 0.0 0.0 0.00 0.43 0.43 87 993.0
20210123222900 34 0 0.0 0.0 0.00 0.43 0.43 87 992.9
20210123222801 34 0 0.0 0.0 0.00 0.43 0.43 87 992.9
20210123222659 34 314 0.0 2.0 0.00 0.43 0.43 87 992.9
20210123222602 34 314 0.0 2.0 0.00 0.43 0.43 87 992.9
20210123222500 34 314 0.0 2.0 0.00 0.43 0.43 87 992.9
20210123222401 34 314 0.0 2.0 0.00 0.43 0.43 87 992.9
20210123222300 34 314 0.0 2.0 0.00 0.43 0.43 87 992.8
20210123222159 34 314 0.0 2.0 0.00 0.43 0.43 87 992.8
20210123222104 34 314 0.0 2.0 0.00 0.43 0.43 87 992.8
20210123222000 34 314 0.0 2.0 0.00 0.43 0.43 87 992.8
20210123221903 34 314 0.0 2.0 0.00 0.43 0.43 87 992.8
20210123221801 34 314 0.0 2.0 0.00 0.43 0.43 87 992.8
20210123221703 34 0 0.0 0.0 0.00 0.43 0.43 87 992.8
20210123221604 34 0 0.0 0.0 0.00 0.43 0.43 87 992.8
20210123221514 34 0 0.0 0.0 0.00 0.43 0.43 87 992.8
20210123221402 34 0 0.0 0.0 0.00 0.43 0.43 87 992.8
20210123221303 34 337 0.0 1.0 0.00 0.43 0.43 87 992.7
20210123221200 34 337 0.0 1.0 0.00 0.43 0.43 87 992.7
20210123221102 34 337 0.0 1.0 0.00 0.43 0.43 87 992.7
20210123221001 34 337 0.0 1.0 0.00 0.43 0.43 87 992.7
20210123220901 35 337 0.0 1.0 0.00 0.43 0.43 87 992.8
20210123220800 35 337 0.0 1.0 0.00 0.43 0.43 87 992.8
20210123220704 35 337 0.0 1.0 0.00 0.43 0.43 87 992.8
20210123220607 35 337 0.0 1.0 0.00 0.43 0.43 87 992.7
20210123220500 35 314 0.0 1.0 0.00 0.43 0.43 87 992.7
20210123220402 35 314 0.0 1.0 0.00 0.43 0.43 87 992.7
20210123220303 35 314 0.0 1.0 0.00 0.43 0.43 87 992.7
20210123220205 35 314 0.0 1.0 0.00 0.43 0.43 87 992.7
20210123220110 35 314 0.0 2.0 0.00 0.43 0.43 87 992.7
20210123220000 35 317 0.0 2.0 0.00 0.43 0.43 87 992.7
20210123215900 35 319 0.0 2.0 0.00 0.43 0.43 87 992.7
20210123215801 35 321 0.0 2.0 0.00 0.43 0.43 87 992.6
20210123215700 35 325 0.0 2.0 0.00 0.43 0.43 87 992.7
20210123215559 35 322 0.0 2.0 0.00 0.43 0.43 87 992.7
20210123215500 35 321 0.0 2.0 0.00 0.43 0.43 87 992.7
20210123215402 35 320 0.0 2.0 0.00 0.43 0.43 87 992.6
20210123215259 35 319 0.0 2.0 0.00 0.43 0.43 87 992.6
20210123215159 35 320 0.0 2.0 0.00 0.43 0.43 87 992.6
20210123215059 35 321 0.0 2.0 0.00 0.43 0.43 87 992.6
20210123215000 35 315 0.0 2.0 0.00 0.43 0.43 87 992.6
20210123214900 35 314 0.0 2.0 0.00 0.43 0.43 87 992.5
20210123214800 35 314 1.0 2.0 0.00 0.43 0.43 87 992.5
20210123214700 35 314 1.0 2.0 0.00 0.43 0.43 87 992.5
20210123214600 35 318 1.0 2.0 0.00 0.43 0.43 87 992.5
20210123214459 35 321 1.0 5.0 0.00 0.43 0.43 87 992.5
20210123214403 35 320 1.0 5.0 0.00 0.43 0.43 87 992.5
20210123214300 35 319 1.0 5.0 0.00 0.43 0.43 87 992.5
20210123214201 35 319 2.0 6.0 0.00 0.43 0.43 87 992.4
20210123214101 35 319 2.0 7.0 0.00 0.43 0.43 87 992.4
20210123214021 35 319 2.0 7.0 0.00 0.43 0.43 87 992.4
20210123213901 35 318 2.0 7.0 0.00 0.43 0.43 87 992.3
20210123213801 36 319 2.0 7.0 0.00 0.43 0.43 87 992.3
20210123213707 36 318 2.0 7.0 0.00 0.43 0.43 87 992.3
20210123213601 36 316 2.0 7.0 0.00 0.43 0.43 87 992.3
20210123213459 36 316 2.0 7.0 0.00 0.43 0.43 87 992.2
20210123213359 36 315 2.0 7.0 0.00 0.43 0.43 87 992.2
20210123213259 36 316 2.0 7.0 0.00 0.43 0.43 87 992.2
20210123213201 36 315 2.0 7.0 0.00 0.43 0.43 87 992.1
20210123213104 36 317 2.0 7.0 0.00 0.43 0.43 87 992.1
20210123213017 36 318 2.0 4.0 0.00 0.43 0.43 87 992.1
20210123212901 36 320 2.0 4.0 0.00 0.43 0.43 87 992.1
20210123212801 36 321 2.0 4.0 0.00 0.43 0.43 87 992.1
20210123212702 36 321 2.0 4.0 0.00 0.43 0.43 87 992.1
20210123212601 36 322 2.0 5.0 0.00 0.43 0.43 87 992.1
20210123212512 36 321 2.0 5.0 0.00 0.43 0.43 87 992.0
20210123212401 36 318 2.0 5.0 0.00 0.43 0.43 87 992.0
20210123212305 36 318 2.0 6.0 0.00 0.43 0.43 87 992.0
20210123212200 36 318 2.0 6.0 0.00 0.43 0.43 87 992.0
20210123212100 36 318 2.0 6.0 0.00 0.43 0.43 87 992.0
20210123212014 36 316 2.0 6.0 0.00 0.43 0.43 87 992.0
20210123211900 36 316 3.0 6.0 0.00 0.43 0.43 87 992.0
20210123211801 36 315 3.0 10.0 0.00 0.43 0.43 87 992.0
20210123211702 36 316 4.0 10.0 0.00 0.43 0.43 87 992.0
20210123211559 36 317 4.0 10.0 0.00 0.43 0.43 87 991.9
20210123211459 36 318 4.0 10.0 0.00 0.43 0.43 87 992.0
20210123211400 36 319 4.0 10.0 0.00 0.43 0.43 87 992.0
20210123211259 36 319 4.0 10.0 0.00 0.43 0.43 87 992.0
20210123211200 36 319 4.0 10.0 0.00 0.43 0.43 87 992.0
20210123211100 36 318 4.0 10.0 0.00 0.43 0.43 87 992.0
20210123211011 36 319 4.0 10.0 0.00 0.43 0.43 87 992.0
20210123210900 37 318 4.0 10.0 0.00 0.43 0.43 87 991.9
20210123210801 37 318 4.0 8.0 0.00 0.43 0.43 87 991.9
20210123210700 37 317 4.0 8.0 0.00 0.43 0.43 87 992.0
20210123210627 37 314 4.0 8.0 0.00 0.43 0.43 87 992.0
20210123210501 37 314 3.0 6.0 0.00 0.43 0.43 87 991.9
20210123210401 37 314 3.0 6.0 0.00 0.43 0.43 87 992.0
20210123210259 37 314 3.0 6.0 0.00 0.43 0.43 87 992.0
20210123210204 37 312 3.0 6.0 0.00 0.43 0.43 87 992.0
20210123210102 37 311 3.0 6.0 0.00 0.43 0.43 87 992.0
20210123210023 37 313 4.0 11.0 0.00 0.43 0.43 87 991.9
20210123205900 37 314 4.0 11.0 0.00 0.43 0.43 87 992.0
20210123205801 37 316 4.0 11.0 0.00 0.43 0.43 87 991.9
20210123205659 37 320 4.0 11.0 0.00 0.43 0.43 87 992.0
20210123205600 37 322 5.0 13.0 0.00 0.43 0.43 87 992.0
20210123205512 37 322 5.0 13.0 0.00 0.43 0.43 87 991.9
20210123205359 37 321 5.0 13.0 0.00 0.43 0.43 87 991.9
20210123205309 37 323 5.0 13.0 0.00 0.43 0.43 87 991.9
20210123205200 37 324 5.0 14.0 0.00 0.43 0.43 87 991.9
20210123205107 37 326 6.0 14.0 0.00 0.43 0.43 87 991.9
20210123204959 37 327 6.0 14.0 0.00 0.43 0.43 87 991.9
20210123204918 37 327 6.0 14.0 0.00 0.43 0.43 86 992.0
20210123204808 37 324 6.0 14.0 0.00 0.43 0.43 86 991.9
20210123204709 37 322 6.0 14.0 0.00 0.43 0.43 87 991.9
20210123204600 37 322 6.0 14.0 0.00 0.43 0.43 87 991.9
20210123204500 37 323 6.0 14.0 0.00 0.43 0.43 87 991.9
20210123204401 37 322 6.0 14.0 0.00 0.43 0.43 87 991.9
20210123204309 37 323 6.0 14.0 0.00 0.43 0.43 87 991.9
20210123204201 37 323 6.0 13.0 0.00 0.43 0.43 87 991.9
20210123204100 37 322 6.0 13.0 0.00 0.43 0.43 87 991.9
20210123204000 37 321 5.0 13.0 0.00 0.43 0.43 87 991.9
20210123203904 37 321 5.0 13.0 0.00 0.43 0.43 87 991.9
20210123203810 38 323 5.0 13.0 0.00 0.43 0.43 87 991.9
20210123203701 38 321 5.0 13.0 0.00 0.43 0.43 87 991.9
20210123203605 38 321 5.0 13.0 0.00 0.43 0.43 87 991.9
20210123203510 38 320 5.0 13.0 0.00 0.43 0.43 87 991.8
20210123203400 38 320 5.0 13.0 0.00 0.43 0.43 87 991.9
20210123203300 38 318 4.0 10.0 0.00 0.43 0.43 87 991.9
20210123203206 38 318 4.0 10.0 0.00 0.43 0.43 87 991.9
20210123203111 38 317 5.0 10.0 0.00 0.43 0.43 87 991.9
20210123203000 38 318 5.0 10.0 0.00 0.43 0.43 87 991.9
20210123202901 38 316 5.0 10.0 0.00 0.43 0.43 87 991.8
20210123202801 38 317 5.0 10.0 0.00 0.43 0.43 87 991.8
20210123202704 38 318 5.0 10.0 0.00 0.43 0.43 87 991.8
20210123202620 38 320 4.0 10.0 0.00 0.43 0.43 87 991.8
20210123202512 38 320 4.0 10.0 0.00 0.43 0.43 87 991.8
20210123202359 38 320 4.0 10.0 0.00 0.43 0.43 87 991.8
20210123202330 38 319 4.0 9.0 0.00 0.43 0.43 87 991.8
20210123202200 38 319 3.0 9.0 0.00 0.43 0.43 87 991.8
20210123202105 38 320 3.0 9.0 0.00 0.43 0.43 87 991.8
20210123202020 38 320 3.0 9.0 0.00 0.43 0.43 87 991.8
20210123201901 38 320 3.0 9.0 0.00 0.43 0.43 87 991.8
20210123201800 38 319 3.0 9.0 0.00 0.43 0.43 87 991.8
20210123201659 38 315 3.0 9.0 0.00 0.43 0.43 87 991.8
20210123201606 38 314 3.0 9.0 0.00 0.43 0.43 87 991.8
20210123201512 38 315 3.0 9.0 0.00 0.43 0.43 87 991.7
20210123201403 38 316 3.0 9.0 0.00 0.43 0.43 87 991.7
20210123201306 38 317 4.0 9.0 0.00 0.43 0.43 87 991.8
20210123201159 38 318 4.0 10.0 0.00 0.43 0.43 87 991.8
20210123201103 38 318 4.0 12.0 0.00 0.43 0.43 87 991.8
20210123201007 38 318 5.0 12.0 0.00 0.43 0.43 87 991.7
20210123200905 38 318 5.0 12.0 0.00 0.43 0.43 87 991.7
20210123200804 38 318 5.0 12.0 0.00 0.43 0.43 87 991.7
20210123200704 38 318 5.0 12.0 0.00 0.43 0.43 87 991.7
20210123200612 38 319 5.0 12.0 0.00 0.43 0.43 87 991.7
20210123200529 38 317 5.0 12.0 0.00 0.43 0.43 87 991.6
20210123200400 38 318 5.0 12.0 0.00 0.43 0.43 87 991.6
20210123200259 38 319 5.0 12.0 0.00 0.43 0.43 87 991.7
20210123200208 38 319 5.0 12.0 0.00 0.43 0.43 87 991.6
20210123200108 38 319 4.0 9.0 0.00 0.43 0.43 87 991.6
20210123200000 38 318 4.0 9.0 0.00 0.43 0.43 87 991.6
20210123195903 38 317 4.0 9.0 0.00 0.43 0.43 87 991.6
20210123195802 38 318 4.0 9.0 0.00 0.43 0.43 87 991.6
20210123195700 38 318 4.0 9.0 0.00 0.43 0.43 87 991.6
20210123195608 38 318 4.0 9.0 0.00 0.43 0.43 87 991.5
20210123195538 38 320 4.0 10.0 0.00 0.43 0.43 87 991.6
20210123195415 38 320 4.0 10.0 0.00 0.43 0.43 87 991.5
20210123195259 38 317 3.0 10.0 0.00 0.43 0.43 87 991.5
20210123195159 38 314 4.0 10.0 0.00 0.43 0.43 87 991.5
20210123195103 38 315 4.0 10.0 0.00 0.43 0.43 87 991.5
20210123195015 38 315 4.0 10.0 0.00 0.43 0.43 87 991.5
20210123194907 38 316 4.0 10.0 0.00 0.43 0.43 87 991.5
20210123194800 38 316 4.0 10.0 0.00 0.43 0.43 87 991.4
20210123194659 38 315 4.0 10.0 0.00 0.43 0.43 87 991.4
20210123194605 38 315 4.0 10.0 0.00 0.43 0.43 87 991.4
20210123194522 38 316 4.0 8.0 0.00 0.43 0.43 87 991.4
20210123194402 38 315 5.0 10.0 0.00 0.43 0.43 87 991.4
20210123194301 38 315 5.0 10.0 0.00 0.43 0.43 87 991.4
20210123194220 38 316 5.0 10.0 0.00 0.43 0.43 87 991.4
20210123194202 38 314 5.0 10.0 0.00 0.43 0.43 87 991.4
20210123194024 38 314 4.0 10.0 0.00 0.43 0.43 87 991.4
20210123193859 38 314 5.0 10.0 0.00 0.43 0.43 87 991.3
20210123193802 38 315 5.0 10.0 0.00 0.43 0.43 87 991.3
20210123193659 38 317 5.0 10.0 0.00 0.43 0.43 87 991.3
20210123193600 38 317 5.0 10.0 0.00 0.43 0.43 87 991.3
20210123193500 38 316 5.0 10.0 0.00 0.43 0.43 87 991.3
20210123193403 38 314 4.0 9.0 0.00 0.43 0.43 87 991.2
20210123193301 38 318 4.0 9.0 0.00 0.43 0.43 87 991.2
20210123193200 38 319 4.0 9.0 0.00 0.43 0.43 87 991.2
20210123193123 38 319 4.0 9.0 0.00 0.43 0.43 87 991.2
20210123193011 38 319 4.0 9.0 0.00 0.43 0.43 87 991.2
20210123192900 38 319 4.0 8.0 0.00 0.43 0.43 87 991.2
20210123192759 38 318 4.0 8.0 0.00 0.43 0.43 87 991.1
20210123192700 38 317 4.0 9.0 0.00 0.43 0.43 87 991.1
20210123192559 38 317 4.0 9.0 0.00 0.43 0.43 87 991.0
20210123192459 38 317 4.0 9.0 0.00 0.43 0.43 87 991.0
20210123192400 38 318 4.0 9.0 0.00 0.43 0.43 87 991.0
20210123192311 38 314 5.0 14.0 0.00 0.43 0.43 87 991.0
20210123192201 38 312 4.0 14.0 0.00 0.43 0.43 87 991.0
20210123192100 38 314 5.0 14.0 0.00 0.43 0.43 87 991.0
20210123192019 38 316 5.0 14.0 0.00 0.43 0.43 87 991.0
20210123191900 38 315 5.0 14.0 0.00 0.43 0.43 87 991.0
20210123191800 38 318 6.0 14.0 0.00 0.43 0.43 87 990.9
20210123191701 38 318 5.0 14.0 0.00 0.43 0.43 87 991.0
20210123191609 38 319 5.0 14.0 0.00 0.43 0.43 87 990.9
20210123191500 38 317 5.0 14.0 0.00 0.43 0.43 87 990.8
20210123191412 38 317 5.0 14.0 0.00 0.43 0.43 87 990.9
20210123191301 38 319 5.0 11.0 0.00 0.43 0.43 87 990.9
20210123191159 38 320 6.0 13.0 0.00 0.43 0.43 87 990.9
20210123191100 38 318 6.0 16.0 0.00 0.43 0.43 87 990.8
20210123191001 38 318 6.0 16.0 0.00 0.43 0.43 87 990.8
20210123190911 38 318 5.0 16.0 0.00 0.43 0.43 87 990.7
20210123190811 38 318 5.0 16.0 0.00 0.43 0.43 87 990.8